<?xml version="1.0" encoding="UTF-8" standalone="no" ?>
<gpx xmlns="http://www.topografix.com/GPX/1/1" xmlns:xsi="http://www.w3.org/2001/XMLSchema-instance" xsi:schemaLocation="http://www.topografix.com/GPX/1/1 http://www.topografix.com/GPX/1/1/gpx.xsd" version="1.1" creator="VisuGPX - https://www.visugpx.com">
  <metadata>
    <name>Ailefroide et barre des écrins</name>
  </metadata>
  <trk>
    <name><![CDATA[Ailefroide J3 22.07.20]]></name>
    <trkseg>
      <trkpt lat="44.87328" lon="6.39023">
        <ele>2513.98</ele>
        <time>2020-07-22T05:52:08Z</time>
      </trkpt>
      <trkpt lat="44.87328" lon="6.39023">
        <ele>2513.98</ele>
        <time>2020-07-22T05:52:09Z</time>
      </trkpt>
      <trkpt lat="44.8733" lon="6.39011">
        <ele>2514.47</ele>
        <time>2020-07-22T05:52:19Z</time>
      </trkpt>
      <trkpt lat="44.87329" lon="6.39005">
        <ele>2510.14</ele>
        <time>2020-07-22T05:52:24Z</time>
      </trkpt>
      <trkpt lat="44.87329" lon="6.39001">
        <ele>2513.5</ele>
        <time>2020-07-22T05:52:26Z</time>
      </trkpt>
      <trkpt lat="44.87329" lon="6.39">
        <ele>2513.5</ele>
        <time>2020-07-22T05:52:27Z</time>
      </trkpt>
      <trkpt lat="44.87331" lon="6.38995">
        <ele>2512.06</ele>
        <time>2020-07-22T05:52:29Z</time>
      </trkpt>
      <trkpt lat="44.87331" lon="6.38992">
        <ele>2509.18</ele>
        <time>2020-07-22T05:52:31Z</time>
      </trkpt>
      <trkpt lat="44.8733" lon="6.38991">
        <ele>2509.18</ele>
        <time>2020-07-22T05:52:32Z</time>
      </trkpt>
      <trkpt lat="44.8733" lon="6.38989">
        <ele>2509.18</ele>
        <time>2020-07-22T05:52:33Z</time>
      </trkpt>
      <trkpt lat="44.8733" lon="6.38986">
        <ele>2510.14</ele>
        <time>2020-07-22T05:52:35Z</time>
      </trkpt>
      <trkpt lat="44.87325" lon="6.3898">
        <ele>2508.7</ele>
        <time>2020-07-22T05:52:41Z</time>
      </trkpt>
      <trkpt lat="44.87323" lon="6.38972">
        <ele>2505.81</ele>
        <time>2020-07-22T05:52:47Z</time>
      </trkpt>
      <trkpt lat="44.87323" lon="6.38969">
        <ele>2507.74</ele>
        <time>2020-07-22T05:52:49Z</time>
      </trkpt>
      <trkpt lat="44.87322" lon="6.38963">
        <ele>2503.89</ele>
        <time>2020-07-22T05:52:54Z</time>
      </trkpt>
      <trkpt lat="44.87323" lon="6.38961">
        <ele>2503.89</ele>
        <time>2020-07-22T05:52:55Z</time>
      </trkpt>
      <trkpt lat="44.87325" lon="6.38951">
        <ele>2501.97</ele>
        <time>2020-07-22T05:53:02Z</time>
      </trkpt>
      <trkpt lat="44.87326" lon="6.38945">
        <ele>2498.6</ele>
        <time>2020-07-22T05:53:07Z</time>
      </trkpt>
      <trkpt lat="44.87329" lon="6.38919">
        <ele>2497.16</ele>
        <time>2020-07-22T05:53:24Z</time>
      </trkpt>
      <trkpt lat="44.8733" lon="6.38908">
        <ele>2496.2</ele>
        <time>2020-07-22T05:53:31Z</time>
      </trkpt>
      <trkpt lat="44.87327" lon="6.38885">
        <ele>2492.36</ele>
        <time>2020-07-22T05:53:45Z</time>
      </trkpt>
      <trkpt lat="44.87318" lon="6.38901">
        <ele>2489.47</ele>
        <time>2020-07-22T05:54:00Z</time>
      </trkpt>
      <trkpt lat="44.87309" lon="6.38913">
        <ele>2487.07</ele>
        <time>2020-07-22T05:54:15Z</time>
      </trkpt>
      <trkpt lat="44.87304" lon="6.38917">
        <ele>2484.66</ele>
        <time>2020-07-22T05:54:24Z</time>
      </trkpt>
      <trkpt lat="44.87306" lon="6.38905">
        <ele>2481.78</ele>
        <time>2020-07-22T05:54:37Z</time>
      </trkpt>
      <trkpt lat="44.87307" lon="6.38904">
        <ele>2481.78</ele>
        <time>2020-07-22T05:54:38Z</time>
      </trkpt>
      <trkpt lat="44.87303" lon="6.38887">
        <ele>2478.9</ele>
        <time>2020-07-22T05:54:56Z</time>
      </trkpt>
      <trkpt lat="44.87292" lon="6.38883">
        <ele>2476.01</ele>
        <time>2020-07-22T05:55:13Z</time>
      </trkpt>
      <trkpt lat="44.87286" lon="6.38882">
        <ele>2473.61</ele>
        <time>2020-07-22T05:55:28Z</time>
      </trkpt>
      <trkpt lat="44.87272" lon="6.38879">
        <ele>2470.73</ele>
        <time>2020-07-22T05:55:51Z</time>
      </trkpt>
      <trkpt lat="44.87273" lon="6.38874">
        <ele>2467.36</ele>
        <time>2020-07-22T05:55:58Z</time>
      </trkpt>
      <trkpt lat="44.87273" lon="6.38873">
        <ele>2466.88</ele>
        <time>2020-07-22T05:55:59Z</time>
      </trkpt>
      <trkpt lat="44.8728" lon="6.38865">
        <ele>2464.96</ele>
        <time>2020-07-22T05:56:17Z</time>
      </trkpt>
      <trkpt lat="44.87278" lon="6.38859">
        <ele>2464.96</ele>
        <time>2020-07-22T05:56:18Z</time>
      </trkpt>
      <trkpt lat="44.87267" lon="6.38855">
        <ele>2461.59</ele>
        <time>2020-07-22T05:56:31Z</time>
      </trkpt>
      <trkpt lat="44.87269" lon="6.38853">
        <ele>2460.63</ele>
        <time>2020-07-22T05:56:34Z</time>
      </trkpt>
      <trkpt lat="44.87272" lon="6.38848">
        <ele>2460.15</ele>
        <time>2020-07-22T05:56:40Z</time>
      </trkpt>
      <trkpt lat="44.87274" lon="6.38835">
        <ele>2457.27</ele>
        <time>2020-07-22T05:56:56Z</time>
      </trkpt>
      <trkpt lat="44.87266" lon="6.38814">
        <ele>2455.82</ele>
        <time>2020-07-22T05:57:27Z</time>
      </trkpt>
      <trkpt lat="44.87257" lon="6.38822">
        <ele>2453.42</ele>
        <time>2020-07-22T05:57:45Z</time>
      </trkpt>
      <trkpt lat="44.87256" lon="6.38823">
        <ele>2452.94</ele>
        <time>2020-07-22T05:57:47Z</time>
      </trkpt>
      <trkpt lat="44.87252" lon="6.38841">
        <ele>2451.02</ele>
        <time>2020-07-22T05:57:59Z</time>
      </trkpt>
      <trkpt lat="44.87246" lon="6.38857">
        <ele>2447.65</ele>
        <time>2020-07-22T05:58:14Z</time>
      </trkpt>
      <trkpt lat="44.87242" lon="6.38868">
        <ele>2446.21</ele>
        <time>2020-07-22T05:58:31Z</time>
      </trkpt>
      <trkpt lat="44.87239" lon="6.38883">
        <ele>2445.25</ele>
        <time>2020-07-22T05:58:41Z</time>
      </trkpt>
      <trkpt lat="44.8724" lon="6.38891">
        <ele>2445.25</ele>
        <time>2020-07-22T05:58:48Z</time>
      </trkpt>
      <trkpt lat="44.87239" lon="6.38906">
        <ele>2443.33</ele>
        <time>2020-07-22T05:59:01Z</time>
      </trkpt>
      <trkpt lat="44.87238" lon="6.3891">
        <ele>2442.85</ele>
        <time>2020-07-22T05:59:04Z</time>
      </trkpt>
      <trkpt lat="44.87236" lon="6.38914">
        <ele>2442.37</ele>
        <time>2020-07-22T05:59:07Z</time>
      </trkpt>
      <trkpt lat="44.87239" lon="6.38939">
        <ele>2440.44</ele>
        <time>2020-07-22T05:59:25Z</time>
      </trkpt>
      <trkpt lat="44.87241" lon="6.38942">
        <ele>2441.89</ele>
        <time>2020-07-22T05:59:27Z</time>
      </trkpt>
      <trkpt lat="44.87242" lon="6.38945">
        <ele>2442.37</ele>
        <time>2020-07-22T05:59:29Z</time>
      </trkpt>
      <trkpt lat="44.87241" lon="6.38951">
        <ele>2443.33</ele>
        <time>2020-07-22T05:59:33Z</time>
      </trkpt>
      <trkpt lat="44.87239" lon="6.38958">
        <ele>2443.81</ele>
        <time>2020-07-22T05:59:36Z</time>
      </trkpt>
      <trkpt lat="44.87235" lon="6.38979">
        <ele>2444.29</ele>
        <time>2020-07-22T05:59:47Z</time>
      </trkpt>
      <trkpt lat="44.87235" lon="6.38996">
        <ele>2443.81</ele>
        <time>2020-07-22T06:00:01Z</time>
      </trkpt>
      <trkpt lat="44.87235" lon="6.39002">
        <ele>2442.37</ele>
        <time>2020-07-22T06:00:04Z</time>
      </trkpt>
      <trkpt lat="44.87233" lon="6.39017">
        <ele>2439.96</ele>
        <time>2020-07-22T06:00:14Z</time>
      </trkpt>
      <trkpt lat="44.87234" lon="6.39021">
        <ele>2439.96</ele>
        <time>2020-07-22T06:00:16Z</time>
      </trkpt>
      <trkpt lat="44.87231" lon="6.39032">
        <ele>2439.48</ele>
        <time>2020-07-22T06:00:22Z</time>
      </trkpt>
      <trkpt lat="44.8723" lon="6.39037">
        <ele>2439</ele>
        <time>2020-07-22T06:00:25Z</time>
      </trkpt>
      <trkpt lat="44.8723" lon="6.39048">
        <ele>2437.56</ele>
        <time>2020-07-22T06:00:31Z</time>
      </trkpt>
      <trkpt lat="44.87226" lon="6.39078">
        <ele>2436.6</ele>
        <time>2020-07-22T06:00:50Z</time>
      </trkpt>
      <trkpt lat="44.87227" lon="6.39086">
        <ele>2434.68</ele>
        <time>2020-07-22T06:00:56Z</time>
      </trkpt>
      <trkpt lat="44.87226" lon="6.39088">
        <ele>2434.2</ele>
        <time>2020-07-22T06:00:58Z</time>
      </trkpt>
      <trkpt lat="44.87227" lon="6.39102">
        <ele>2430.83</ele>
        <time>2020-07-22T06:01:10Z</time>
      </trkpt>
      <trkpt lat="44.87228" lon="6.39104">
        <ele>2430.83</ele>
        <time>2020-07-22T06:01:11Z</time>
      </trkpt>
      <trkpt lat="44.87231" lon="6.39124">
        <ele>2428.43</ele>
        <time>2020-07-22T06:01:26Z</time>
      </trkpt>
      <trkpt lat="44.8723" lon="6.39129">
        <ele>2427.95</ele>
        <time>2020-07-22T06:01:29Z</time>
      </trkpt>
      <trkpt lat="44.87224" lon="6.39155">
        <ele>2424.58</ele>
        <time>2020-07-22T06:01:48Z</time>
      </trkpt>
      <trkpt lat="44.87224" lon="6.39157">
        <ele>2424.58</ele>
        <time>2020-07-22T06:01:50Z</time>
      </trkpt>
      <trkpt lat="44.87217" lon="6.39162">
        <ele>2421.22</ele>
        <time>2020-07-22T06:02:03Z</time>
      </trkpt>
      <trkpt lat="44.87218" lon="6.39175">
        <ele>2417.37</ele>
        <time>2020-07-22T06:02:15Z</time>
      </trkpt>
      <trkpt lat="44.87221" lon="6.39191">
        <ele>2414.01</ele>
        <time>2020-07-22T06:02:29Z</time>
      </trkpt>
      <trkpt lat="44.87222" lon="6.39196">
        <ele>2412.57</ele>
        <time>2020-07-22T06:02:34Z</time>
      </trkpt>
      <trkpt lat="44.87223" lon="6.39201">
        <ele>2413.05</ele>
        <time>2020-07-22T06:02:54Z</time>
      </trkpt>
      <trkpt lat="44.87224" lon="6.39201">
        <ele>2411.6</ele>
        <time>2020-07-22T06:03:15Z</time>
      </trkpt>
      <trkpt lat="44.8723" lon="6.39209">
        <ele>2408.72</ele>
        <time>2020-07-22T06:03:27Z</time>
      </trkpt>
      <trkpt lat="44.8723" lon="6.39217">
        <ele>2404.88</ele>
        <time>2020-07-22T06:03:39Z</time>
      </trkpt>
      <trkpt lat="44.87228" lon="6.3922">
        <ele>2403.91</ele>
        <time>2020-07-22T06:03:44Z</time>
      </trkpt>
      <trkpt lat="44.87225" lon="6.39227">
        <ele>2401.51</ele>
        <time>2020-07-22T06:03:54Z</time>
      </trkpt>
      <trkpt lat="44.87226" lon="6.39233">
        <ele>2399.11</ele>
        <time>2020-07-22T06:04:06Z</time>
      </trkpt>
      <trkpt lat="44.87223" lon="6.3924">
        <ele>2395.74</ele>
        <time>2020-07-22T06:04:18Z</time>
      </trkpt>
      <trkpt lat="44.87226" lon="6.39244">
        <ele>2393.34</ele>
        <time>2020-07-22T06:04:35Z</time>
      </trkpt>
      <trkpt lat="44.87227" lon="6.39248">
        <ele>2390.94</ele>
        <time>2020-07-22T06:04:41Z</time>
      </trkpt>
      <trkpt lat="44.87243" lon="6.39247">
        <ele>2388.53</ele>
        <time>2020-07-22T06:04:57Z</time>
      </trkpt>
      <trkpt lat="44.87251" lon="6.39247">
        <ele>2385.65</ele>
        <time>2020-07-22T06:05:09Z</time>
      </trkpt>
      <trkpt lat="44.8726" lon="6.39248">
        <ele>2382.28</ele>
        <time>2020-07-22T06:05:25Z</time>
      </trkpt>
      <trkpt lat="44.87267" lon="6.39244">
        <ele>2378.92</ele>
        <time>2020-07-22T06:05:40Z</time>
      </trkpt>
      <trkpt lat="44.87275" lon="6.39245">
        <ele>2375.55</ele>
        <time>2020-07-22T06:05:55Z</time>
      </trkpt>
      <trkpt lat="44.87274" lon="6.39245">
        <ele>2375.55</ele>
        <time>2020-07-22T06:05:56Z</time>
      </trkpt>
      <trkpt lat="44.87276" lon="6.39248">
        <ele>2375.55</ele>
        <time>2020-07-22T06:05:59Z</time>
      </trkpt>
      <trkpt lat="44.8728" lon="6.39258">
        <ele>2374.59</ele>
        <time>2020-07-22T06:06:04Z</time>
      </trkpt>
      <trkpt lat="44.8729" lon="6.39262">
        <ele>2373.15</ele>
        <time>2020-07-22T06:06:14Z</time>
      </trkpt>
      <trkpt lat="44.87301" lon="6.39265">
        <ele>2372.19</ele>
        <time>2020-07-22T06:06:34Z</time>
      </trkpt>
      <trkpt lat="44.87303" lon="6.39266">
        <ele>2372.19</ele>
        <time>2020-07-22T06:06:41Z</time>
      </trkpt>
      <trkpt lat="44.87303" lon="6.39269">
        <ele>2370.27</ele>
        <time>2020-07-22T06:06:46Z</time>
      </trkpt>
      <trkpt lat="44.87301" lon="6.39266">
        <ele>2370.27</ele>
        <time>2020-07-22T06:07:26Z</time>
      </trkpt>
      <trkpt lat="44.87303" lon="6.39265">
        <ele>2370.27</ele>
        <time>2020-07-22T06:08:05Z</time>
      </trkpt>
      <trkpt lat="44.87299" lon="6.39265">
        <ele>2369.79</ele>
        <time>2020-07-22T06:08:50Z</time>
      </trkpt>
      <trkpt lat="44.873" lon="6.39265">
        <ele>2369.31</ele>
        <time>2020-07-22T06:09:43Z</time>
      </trkpt>
      <trkpt lat="44.87302" lon="6.39269">
        <ele>2369.31</ele>
        <time>2020-07-22T06:10:23Z</time>
      </trkpt>
      <trkpt lat="44.87301" lon="6.39267">
        <ele>2369.31</ele>
        <time>2020-07-22T06:11:09Z</time>
      </trkpt>
      <trkpt lat="44.87298" lon="6.39266">
        <ele>2368.83</ele>
        <time>2020-07-22T06:11:59Z</time>
      </trkpt>
      <trkpt lat="44.873" lon="6.39268">
        <ele>2368.83</ele>
        <time>2020-07-22T06:12:39Z</time>
      </trkpt>
      <trkpt lat="44.87302" lon="6.39271">
        <ele>2368.83</ele>
        <time>2020-07-22T06:13:24Z</time>
      </trkpt>
      <trkpt lat="44.87299" lon="6.39268">
        <ele>2368.83</ele>
        <time>2020-07-22T06:14:16Z</time>
      </trkpt>
      <trkpt lat="44.873" lon="6.39268">
        <ele>2368.83</ele>
        <time>2020-07-22T06:14:55Z</time>
      </trkpt>
      <trkpt lat="44.87299" lon="6.3927">
        <ele>2368.83</ele>
        <time>2020-07-22T06:15:54Z</time>
      </trkpt>
      <trkpt lat="44.87299" lon="6.39274">
        <ele>2369.31</ele>
        <time>2020-07-22T06:16:48Z</time>
      </trkpt>
      <trkpt lat="44.87301" lon="6.39274">
        <ele>2369.31</ele>
        <time>2020-07-22T06:17:27Z</time>
      </trkpt>
      <trkpt lat="44.873" lon="6.39276">
        <ele>2370.75</ele>
        <time>2020-07-22T06:18:15Z</time>
      </trkpt>
      <trkpt lat="44.87302" lon="6.39276">
        <ele>2370.75</ele>
        <time>2020-07-22T06:19:03Z</time>
      </trkpt>
      <trkpt lat="44.87302" lon="6.39271">
        <ele>2371.23</ele>
        <time>2020-07-22T06:19:45Z</time>
      </trkpt>
      <trkpt lat="44.87299" lon="6.39271">
        <ele>2369.79</ele>
        <time>2020-07-22T06:20:39Z</time>
      </trkpt>
      <trkpt lat="44.87299" lon="6.39271">
        <ele>2369.79</ele>
        <time>2020-07-22T06:21:24Z</time>
      </trkpt>
      <trkpt lat="44.873" lon="6.39271">
        <ele>2369.79</ele>
        <time>2020-07-22T06:21:57Z</time>
      </trkpt>
      <trkpt lat="44.873" lon="6.39273">
        <ele>2369.79</ele>
        <time>2020-07-22T06:22:46Z</time>
      </trkpt>
      <trkpt lat="44.873" lon="6.39273">
        <ele>2370.27</ele>
        <time>2020-07-22T06:23:37Z</time>
      </trkpt>
      <trkpt lat="44.87303" lon="6.39276">
        <ele>2371.23</ele>
        <time>2020-07-22T06:24:22Z</time>
      </trkpt>
      <trkpt lat="44.87303" lon="6.39276">
        <ele>2371.71</ele>
        <time>2020-07-22T06:25:17Z</time>
      </trkpt>
      <trkpt lat="44.87303" lon="6.39277">
        <ele>2372.19</ele>
        <time>2020-07-22T06:25:57Z</time>
      </trkpt>
      <trkpt lat="44.87304" lon="6.39277">
        <ele>2372.67</ele>
        <time>2020-07-22T06:26:54Z</time>
      </trkpt>
      <trkpt lat="44.87304" lon="6.39277">
        <ele>2372.67</ele>
        <time>2020-07-22T06:27:43Z</time>
      </trkpt>
      <trkpt lat="44.87302" lon="6.39274">
        <ele>2372.19</ele>
        <time>2020-07-22T06:28:35Z</time>
      </trkpt>
      <trkpt lat="44.87304" lon="6.39273">
        <ele>2372.19</ele>
        <time>2020-07-22T06:28:52Z</time>
      </trkpt>
      <trkpt lat="44.87304" lon="6.39275">
        <ele>2373.15</ele>
        <time>2020-07-22T06:28:55Z</time>
      </trkpt>
      <trkpt lat="44.87306" lon="6.39275">
        <ele>2374.59</ele>
        <time>2020-07-22T06:29:02Z</time>
      </trkpt>
      <trkpt lat="44.87311" lon="6.39268">
        <ele>2371.71</ele>
        <time>2020-07-22T06:29:23Z</time>
      </trkpt>
      <trkpt lat="44.87322" lon="6.3927">
        <ele>2368.83</ele>
        <time>2020-07-22T06:29:37Z</time>
      </trkpt>
      <trkpt lat="44.87327" lon="6.39276">
        <ele>2366.9</ele>
        <time>2020-07-22T06:29:45Z</time>
      </trkpt>
      <trkpt lat="44.87323" lon="6.39277">
        <ele>2364.5</ele>
        <time>2020-07-22T06:30:01Z</time>
      </trkpt>
      <trkpt lat="44.87332" lon="6.39282">
        <ele>2361.14</ele>
        <time>2020-07-22T06:30:15Z</time>
      </trkpt>
      <trkpt lat="44.87336" lon="6.39284">
        <ele>2357.77</ele>
        <time>2020-07-22T06:30:31Z</time>
      </trkpt>
      <trkpt lat="44.87331" lon="6.39286">
        <ele>2354.89</ele>
        <time>2020-07-22T06:30:45Z</time>
      </trkpt>
      <trkpt lat="44.87328" lon="6.39288">
        <ele>2351.52</ele>
        <time>2020-07-22T06:30:59Z</time>
      </trkpt>
      <trkpt lat="44.87327" lon="6.393">
        <ele>2348.64</ele>
        <time>2020-07-22T06:31:12Z</time>
      </trkpt>
      <trkpt lat="44.87325" lon="6.39309">
        <ele>2345.27</ele>
        <time>2020-07-22T06:31:24Z</time>
      </trkpt>
      <trkpt lat="44.87328" lon="6.39314">
        <ele>2343.83</ele>
        <time>2020-07-22T06:31:30Z</time>
      </trkpt>
      <trkpt lat="44.87333" lon="6.39318">
        <ele>2341.91</ele>
        <time>2020-07-22T06:31:43Z</time>
      </trkpt>
      <trkpt lat="44.87334" lon="6.39319">
        <ele>2341.91</ele>
        <time>2020-07-22T06:31:44Z</time>
      </trkpt>
      <trkpt lat="44.87333" lon="6.39323">
        <ele>2339.99</ele>
        <time>2020-07-22T06:31:48Z</time>
      </trkpt>
      <trkpt lat="44.87332" lon="6.39324">
        <ele>2339.51</ele>
        <time>2020-07-22T06:31:49Z</time>
      </trkpt>
      <trkpt lat="44.87324" lon="6.39326">
        <ele>2336.14</ele>
        <time>2020-07-22T06:32:04Z</time>
      </trkpt>
      <trkpt lat="44.87318" lon="6.39325">
        <ele>2332.78</ele>
        <time>2020-07-22T06:32:15Z</time>
      </trkpt>
      <trkpt lat="44.87311" lon="6.39323">
        <ele>2329.89</ele>
        <time>2020-07-22T06:32:26Z</time>
      </trkpt>
      <trkpt lat="44.87301" lon="6.39323">
        <ele>2327.01</ele>
        <time>2020-07-22T06:32:32Z</time>
      </trkpt>
      <trkpt lat="44.873" lon="6.39322">
        <ele>2327.01</ele>
        <time>2020-07-22T06:32:33Z</time>
      </trkpt>
      <trkpt lat="44.8729" lon="6.39321">
        <ele>2323.16</ele>
        <time>2020-07-22T06:32:52Z</time>
      </trkpt>
      <trkpt lat="44.87288" lon="6.39323">
        <ele>2323.16</ele>
        <time>2020-07-22T06:32:56Z</time>
      </trkpt>
      <trkpt lat="44.87287" lon="6.39324">
        <ele>2322.2</ele>
        <time>2020-07-22T06:32:57Z</time>
      </trkpt>
      <trkpt lat="44.8728" lon="6.39332">
        <ele>2319.32</ele>
        <time>2020-07-22T06:33:11Z</time>
      </trkpt>
      <trkpt lat="44.8728" lon="6.39336">
        <ele>2315.95</ele>
        <time>2020-07-22T06:33:27Z</time>
      </trkpt>
      <trkpt lat="44.87278" lon="6.39339">
        <ele>2314.51</ele>
        <time>2020-07-22T06:33:30Z</time>
      </trkpt>
      <trkpt lat="44.87273" lon="6.39345">
        <ele>2311.15</ele>
        <time>2020-07-22T06:33:44Z</time>
      </trkpt>
      <trkpt lat="44.87271" lon="6.39347">
        <ele>2309.7</ele>
        <time>2020-07-22T06:33:48Z</time>
      </trkpt>
      <trkpt lat="44.87265" lon="6.39352">
        <ele>2306.82</ele>
        <time>2020-07-22T06:33:58Z</time>
      </trkpt>
      <trkpt lat="44.87261" lon="6.39361">
        <ele>2303.94</ele>
        <time>2020-07-22T06:34:13Z</time>
      </trkpt>
      <trkpt lat="44.8726" lon="6.39362">
        <ele>2303.46</ele>
        <time>2020-07-22T06:34:15Z</time>
      </trkpt>
      <trkpt lat="44.87254" lon="6.39357">
        <ele>2300.09</ele>
        <time>2020-07-22T06:34:27Z</time>
      </trkpt>
      <trkpt lat="44.87255" lon="6.39361">
        <ele>2297.69</ele>
        <time>2020-07-22T06:34:45Z</time>
      </trkpt>
      <trkpt lat="44.8725" lon="6.39362">
        <ele>2294.8</ele>
        <time>2020-07-22T06:34:55Z</time>
      </trkpt>
      <trkpt lat="44.87249" lon="6.39362">
        <ele>2294.8</ele>
        <time>2020-07-22T06:34:56Z</time>
      </trkpt>
      <trkpt lat="44.87236" lon="6.39355">
        <ele>2291.44</ele>
        <time>2020-07-22T06:35:14Z</time>
      </trkpt>
      <trkpt lat="44.87226" lon="6.39349">
        <ele>2288.56</ele>
        <time>2020-07-22T06:35:30Z</time>
      </trkpt>
      <trkpt lat="44.87228" lon="6.3935">
        <ele>2285.67</ele>
        <time>2020-07-22T06:35:45Z</time>
      </trkpt>
      <trkpt lat="44.87228" lon="6.3935">
        <ele>2285.19</ele>
        <time>2020-07-22T06:35:52Z</time>
      </trkpt>
      <trkpt lat="44.87227" lon="6.39351">
        <ele>2284.23</ele>
        <time>2020-07-22T06:35:53Z</time>
      </trkpt>
      <trkpt lat="44.87215" lon="6.39361">
        <ele>2282.79</ele>
        <time>2020-07-22T06:36:05Z</time>
      </trkpt>
      <trkpt lat="44.87213" lon="6.39376">
        <ele>2279.9</ele>
        <time>2020-07-22T06:36:19Z</time>
      </trkpt>
      <trkpt lat="44.8722" lon="6.39378">
        <ele>2276.06</ele>
        <time>2020-07-22T06:36:33Z</time>
      </trkpt>
      <trkpt lat="44.8722" lon="6.39383">
        <ele>2273.66</ele>
        <time>2020-07-22T06:36:44Z</time>
      </trkpt>
      <trkpt lat="44.87234" lon="6.39376">
        <ele>2270.29</ele>
        <time>2020-07-22T06:36:55Z</time>
      </trkpt>
      <trkpt lat="44.87232" lon="6.39379">
        <ele>2268.37</ele>
        <time>2020-07-22T06:37:04Z</time>
      </trkpt>
      <trkpt lat="44.87236" lon="6.39382">
        <ele>2265.48</ele>
        <time>2020-07-22T06:37:14Z</time>
      </trkpt>
      <trkpt lat="44.87241" lon="6.39388">
        <ele>2262.12</ele>
        <time>2020-07-22T06:37:22Z</time>
      </trkpt>
      <trkpt lat="44.87242" lon="6.39389">
        <ele>2261.64</ele>
        <time>2020-07-22T06:37:23Z</time>
      </trkpt>
      <trkpt lat="44.87244" lon="6.39389">
        <ele>2261.64</ele>
        <time>2020-07-22T06:37:24Z</time>
      </trkpt>
      <trkpt lat="44.87246" lon="6.39387">
        <ele>2260.68</ele>
        <time>2020-07-22T06:37:25Z</time>
      </trkpt>
      <trkpt lat="44.87247" lon="6.39386">
        <ele>2260.68</ele>
        <time>2020-07-22T06:37:26Z</time>
      </trkpt>
      <trkpt lat="44.87249" lon="6.39386">
        <ele>2260.2</ele>
        <time>2020-07-22T06:37:27Z</time>
      </trkpt>
      <trkpt lat="44.87256" lon="6.39383">
        <ele>2258.27</ele>
        <time>2020-07-22T06:37:38Z</time>
      </trkpt>
      <trkpt lat="44.87257" lon="6.39384">
        <ele>2257.79</ele>
        <time>2020-07-22T06:37:39Z</time>
      </trkpt>
      <trkpt lat="44.87259" lon="6.39384">
        <ele>2256.83</ele>
        <time>2020-07-22T06:37:40Z</time>
      </trkpt>
      <trkpt lat="44.87261" lon="6.39386">
        <ele>2255.87</ele>
        <time>2020-07-22T06:37:41Z</time>
      </trkpt>
      <trkpt lat="44.87263" lon="6.39388">
        <ele>2255.87</ele>
        <time>2020-07-22T06:37:42Z</time>
      </trkpt>
      <trkpt lat="44.87265" lon="6.39391">
        <ele>2254.43</ele>
        <time>2020-07-22T06:37:45Z</time>
      </trkpt>
      <trkpt lat="44.8726" lon="6.3939">
        <ele>2251.06</ele>
        <time>2020-07-22T06:37:51Z</time>
      </trkpt>
      <trkpt lat="44.87252" lon="6.39396">
        <ele>2248.66</ele>
        <time>2020-07-22T06:37:58Z</time>
      </trkpt>
      <trkpt lat="44.87249" lon="6.39402">
        <ele>2247.7</ele>
        <time>2020-07-22T06:38:01Z</time>
      </trkpt>
      <trkpt lat="44.87248" lon="6.39405">
        <ele>2246.74</ele>
        <time>2020-07-22T06:38:02Z</time>
      </trkpt>
      <trkpt lat="44.87248" lon="6.39407">
        <ele>2245.78</ele>
        <time>2020-07-22T06:38:03Z</time>
      </trkpt>
      <trkpt lat="44.87247" lon="6.39409">
        <ele>2245.78</ele>
        <time>2020-07-22T06:38:04Z</time>
      </trkpt>
      <trkpt lat="44.87246" lon="6.39411">
        <ele>2245.3</ele>
        <time>2020-07-22T06:38:05Z</time>
      </trkpt>
      <trkpt lat="44.87245" lon="6.39414">
        <ele>2244.33</ele>
        <time>2020-07-22T06:38:07Z</time>
      </trkpt>
      <trkpt lat="44.87245" lon="6.39426">
        <ele>2241.45</ele>
        <time>2020-07-22T06:38:17Z</time>
      </trkpt>
      <trkpt lat="44.87244" lon="6.3943">
        <ele>2240.49</ele>
        <time>2020-07-22T06:38:19Z</time>
      </trkpt>
      <trkpt lat="44.87246" lon="6.39446">
        <ele>2237.61</ele>
        <time>2020-07-22T06:38:29Z</time>
      </trkpt>
      <trkpt lat="44.87249" lon="6.39459">
        <ele>2236.16</ele>
        <time>2020-07-22T06:38:40Z</time>
      </trkpt>
      <trkpt lat="44.87253" lon="6.39478">
        <ele>2233.28</ele>
        <time>2020-07-22T06:38:54Z</time>
      </trkpt>
      <trkpt lat="44.87255" lon="6.39484">
        <ele>2232.8</ele>
        <time>2020-07-22T06:38:57Z</time>
      </trkpt>
      <trkpt lat="44.87258" lon="6.39492">
        <ele>2232.32</ele>
        <time>2020-07-22T06:39:00Z</time>
      </trkpt>
      <trkpt lat="44.87265" lon="6.39513">
        <ele>2231.36</ele>
        <time>2020-07-22T06:39:13Z</time>
      </trkpt>
      <trkpt lat="44.87268" lon="6.39527">
        <ele>2228.47</ele>
        <time>2020-07-22T06:39:23Z</time>
      </trkpt>
      <trkpt lat="44.87264" lon="6.39542">
        <ele>2226.07</ele>
        <time>2020-07-22T06:39:40Z</time>
      </trkpt>
      <trkpt lat="44.87265" lon="6.39543">
        <ele>2225.11</ele>
        <time>2020-07-22T06:39:41Z</time>
      </trkpt>
      <trkpt lat="44.87267" lon="6.3955">
        <ele>2224.63</ele>
        <time>2020-07-22T06:39:46Z</time>
      </trkpt>
      <trkpt lat="44.87269" lon="6.39554">
        <ele>2224.15</ele>
        <time>2020-07-22T06:39:48Z</time>
      </trkpt>
      <trkpt lat="44.87269" lon="6.39561">
        <ele>2222.71</ele>
        <time>2020-07-22T06:39:52Z</time>
      </trkpt>
      <trkpt lat="44.87271" lon="6.39578">
        <ele>2220.3</ele>
        <time>2020-07-22T06:40:03Z</time>
      </trkpt>
      <trkpt lat="44.87275" lon="6.39595">
        <ele>2217.9</ele>
        <time>2020-07-22T06:40:14Z</time>
      </trkpt>
      <trkpt lat="44.87275" lon="6.396">
        <ele>2217.42</ele>
        <time>2020-07-22T06:40:17Z</time>
      </trkpt>
      <trkpt lat="44.87275" lon="6.39602">
        <ele>2217.42</ele>
        <time>2020-07-22T06:40:18Z</time>
      </trkpt>
      <trkpt lat="44.87276" lon="6.39603">
        <ele>2217.42</ele>
        <time>2020-07-22T06:40:19Z</time>
      </trkpt>
      <trkpt lat="44.87275" lon="6.39606">
        <ele>2217.42</ele>
        <time>2020-07-22T06:40:21Z</time>
      </trkpt>
      <trkpt lat="44.87276" lon="6.39608">
        <ele>2216.46</ele>
        <time>2020-07-22T06:40:23Z</time>
      </trkpt>
      <trkpt lat="44.87277" lon="6.39613">
        <ele>2215.98</ele>
        <time>2020-07-22T06:40:24Z</time>
      </trkpt>
      <trkpt lat="44.87278" lon="6.39614">
        <ele>2215.98</ele>
        <time>2020-07-22T06:40:25Z</time>
      </trkpt>
      <trkpt lat="44.87279" lon="6.39617">
        <ele>2215.98</ele>
        <time>2020-07-22T06:40:26Z</time>
      </trkpt>
      <trkpt lat="44.87281" lon="6.39618">
        <ele>2215.5</ele>
        <time>2020-07-22T06:40:27Z</time>
      </trkpt>
      <trkpt lat="44.87282" lon="6.39619">
        <ele>2215.5</ele>
        <time>2020-07-22T06:40:28Z</time>
      </trkpt>
      <trkpt lat="44.87284" lon="6.39622">
        <ele>2215.01</ele>
        <time>2020-07-22T06:40:29Z</time>
      </trkpt>
      <trkpt lat="44.87287" lon="6.39625">
        <ele>2214.53</ele>
        <time>2020-07-22T06:40:32Z</time>
      </trkpt>
      <trkpt lat="44.87289" lon="6.39629">
        <ele>2213.57</ele>
        <time>2020-07-22T06:40:35Z</time>
      </trkpt>
      <trkpt lat="44.87291" lon="6.39635">
        <ele>2212.13</ele>
        <time>2020-07-22T06:40:38Z</time>
      </trkpt>
      <trkpt lat="44.87292" lon="6.39637">
        <ele>2211.17</ele>
        <time>2020-07-22T06:40:39Z</time>
      </trkpt>
      <trkpt lat="44.87293" lon="6.3964">
        <ele>2211.17</ele>
        <time>2020-07-22T06:40:40Z</time>
      </trkpt>
      <trkpt lat="44.87294" lon="6.39641">
        <ele>2211.17</ele>
        <time>2020-07-22T06:40:41Z</time>
      </trkpt>
      <trkpt lat="44.87293" lon="6.39645">
        <ele>2210.69</ele>
        <time>2020-07-22T06:40:44Z</time>
      </trkpt>
      <trkpt lat="44.87293" lon="6.39647">
        <ele>2209.73</ele>
        <time>2020-07-22T06:40:45Z</time>
      </trkpt>
      <trkpt lat="44.87295" lon="6.39664">
        <ele>2206.84</ele>
        <time>2020-07-22T06:40:55Z</time>
      </trkpt>
      <trkpt lat="44.87298" lon="6.39674">
        <ele>2204.44</ele>
        <time>2020-07-22T06:41:04Z</time>
      </trkpt>
      <trkpt lat="44.87298" lon="6.39677">
        <ele>2203.48</ele>
        <time>2020-07-22T06:41:06Z</time>
      </trkpt>
      <trkpt lat="44.87296" lon="6.39682">
        <ele>2202.52</ele>
        <time>2020-07-22T06:41:10Z</time>
      </trkpt>
      <trkpt lat="44.87292" lon="6.39688">
        <ele>2199.15</ele>
        <time>2020-07-22T06:41:17Z</time>
      </trkpt>
      <trkpt lat="44.87291" lon="6.3969">
        <ele>2199.63</ele>
        <time>2020-07-22T06:41:19Z</time>
      </trkpt>
      <trkpt lat="44.87289" lon="6.39695">
        <ele>2196.27</ele>
        <time>2020-07-22T06:41:25Z</time>
      </trkpt>
      <trkpt lat="44.87289" lon="6.39701">
        <ele>2195.31</ele>
        <time>2020-07-22T06:41:28Z</time>
      </trkpt>
      <trkpt lat="44.87286" lon="6.39708">
        <ele>2193.87</ele>
        <time>2020-07-22T06:41:34Z</time>
      </trkpt>
      <trkpt lat="44.87285" lon="6.39709">
        <ele>2193.39</ele>
        <time>2020-07-22T06:41:35Z</time>
      </trkpt>
      <trkpt lat="44.87278" lon="6.3972">
        <ele>2192.42</ele>
        <time>2020-07-22T06:41:52Z</time>
      </trkpt>
      <trkpt lat="44.87302" lon="6.3975">
        <ele>2191.94</ele>
        <time>2020-07-22T06:42:31Z</time>
      </trkpt>
      <trkpt lat="44.87308" lon="6.39757">
        <ele>2191.46</ele>
        <time>2020-07-22T06:43:20Z</time>
      </trkpt>
      <trkpt lat="44.87296" lon="6.39753">
        <ele>2191.46</ele>
        <time>2020-07-22T06:43:51Z</time>
      </trkpt>
      <trkpt lat="44.87298" lon="6.39753">
        <ele>2191.46</ele>
        <time>2020-07-22T06:44:23Z</time>
      </trkpt>
      <trkpt lat="44.87296" lon="6.3975">
        <ele>2191.46</ele>
        <time>2020-07-22T06:44:56Z</time>
      </trkpt>
      <trkpt lat="44.87299" lon="6.39753">
        <ele>2190.98</ele>
        <time>2020-07-22T06:45:33Z</time>
      </trkpt>
      <trkpt lat="44.87295" lon="6.39752">
        <ele>2190.98</ele>
        <time>2020-07-22T06:46:21Z</time>
      </trkpt>
      <trkpt lat="44.87293" lon="6.39752">
        <ele>2190.98</ele>
        <time>2020-07-22T06:46:25Z</time>
      </trkpt>
      <trkpt lat="44.87292" lon="6.3975">
        <ele>2190.98</ele>
        <time>2020-07-22T06:46:38Z</time>
      </trkpt>
      <trkpt lat="44.873" lon="6.39754">
        <ele>2190.5</ele>
        <time>2020-07-22T06:47:02Z</time>
      </trkpt>
      <trkpt lat="44.87304" lon="6.39756">
        <ele>2190.5</ele>
        <time>2020-07-22T06:47:04Z</time>
      </trkpt>
      <trkpt lat="44.87317" lon="6.39765">
        <ele>2188.58</ele>
        <time>2020-07-22T06:47:22Z</time>
      </trkpt>
      <trkpt lat="44.87324" lon="6.39778">
        <ele>2187.14</ele>
        <time>2020-07-22T06:47:37Z</time>
      </trkpt>
      <trkpt lat="44.87326" lon="6.39792">
        <ele>2186.18</ele>
        <time>2020-07-22T06:47:47Z</time>
      </trkpt>
      <trkpt lat="44.87326" lon="6.39795">
        <ele>2186.18</ele>
        <time>2020-07-22T06:47:49Z</time>
      </trkpt>
      <trkpt lat="44.87325" lon="6.39809">
        <ele>2185.69</ele>
        <time>2020-07-22T06:47:58Z</time>
      </trkpt>
      <trkpt lat="44.87327" lon="6.39814">
        <ele>2185.21</ele>
        <time>2020-07-22T06:48:02Z</time>
      </trkpt>
      <trkpt lat="44.87338" lon="6.39839">
        <ele>2183.77</ele>
        <time>2020-07-22T06:48:21Z</time>
      </trkpt>
      <trkpt lat="44.87358" lon="6.39862">
        <ele>2182.33</ele>
        <time>2020-07-22T06:48:42Z</time>
      </trkpt>
      <trkpt lat="44.87365" lon="6.39887">
        <ele>2181.37</ele>
        <time>2020-07-22T06:49:01Z</time>
      </trkpt>
      <trkpt lat="44.87366" lon="6.39914">
        <ele>2180.41</ele>
        <time>2020-07-22T06:49:20Z</time>
      </trkpt>
      <trkpt lat="44.87365" lon="6.39917">
        <ele>2179.45</ele>
        <time>2020-07-22T06:49:22Z</time>
      </trkpt>
      <trkpt lat="44.8736" lon="6.39934">
        <ele>2179.45</ele>
        <time>2020-07-22T06:49:34Z</time>
      </trkpt>
      <trkpt lat="44.87361" lon="6.39941">
        <ele>2178.97</ele>
        <time>2020-07-22T06:49:38Z</time>
      </trkpt>
      <trkpt lat="44.87361" lon="6.39969">
        <ele>2178.48</ele>
        <time>2020-07-22T06:49:58Z</time>
      </trkpt>
      <trkpt lat="44.87362" lon="6.3997">
        <ele>2178.48</ele>
        <time>2020-07-22T06:49:59Z</time>
      </trkpt>
      <trkpt lat="44.87378" lon="6.39991">
        <ele>2178.48</ele>
        <time>2020-07-22T06:50:19Z</time>
      </trkpt>
      <trkpt lat="44.87383" lon="6.39992">
        <ele>2179.93</ele>
        <time>2020-07-22T06:50:27Z</time>
      </trkpt>
      <trkpt lat="44.87388" lon="6.39998">
        <ele>2180.41</ele>
        <time>2020-07-22T06:50:33Z</time>
      </trkpt>
      <trkpt lat="44.87395" lon="6.40031">
        <ele>2178</ele>
        <time>2020-07-22T06:50:54Z</time>
      </trkpt>
      <trkpt lat="44.87395" lon="6.40032">
        <ele>2177.52</ele>
        <time>2020-07-22T06:50:55Z</time>
      </trkpt>
      <trkpt lat="44.874" lon="6.40051">
        <ele>2176.08</ele>
        <time>2020-07-22T06:51:05Z</time>
      </trkpt>
      <trkpt lat="44.87402" lon="6.40073">
        <ele>2174.64</ele>
        <time>2020-07-22T06:51:16Z</time>
      </trkpt>
      <trkpt lat="44.87415" lon="6.40105">
        <ele>2171.76</ele>
        <time>2020-07-22T06:51:36Z</time>
      </trkpt>
      <trkpt lat="44.87423" lon="6.40119">
        <ele>2169.83</ele>
        <time>2020-07-22T06:51:48Z</time>
      </trkpt>
      <trkpt lat="44.87432" lon="6.40146">
        <ele>2166.47</ele>
        <time>2020-07-22T06:52:04Z</time>
      </trkpt>
      <trkpt lat="44.87434" lon="6.4015">
        <ele>2166.47</ele>
        <time>2020-07-22T06:52:06Z</time>
      </trkpt>
      <trkpt lat="44.87448" lon="6.40179">
        <ele>2162.62</ele>
        <time>2020-07-22T06:52:22Z</time>
      </trkpt>
      <trkpt lat="44.8745" lon="6.40182">
        <ele>2162.62</ele>
        <time>2020-07-22T06:52:24Z</time>
      </trkpt>
      <trkpt lat="44.87451" lon="6.40189">
        <ele>2161.18</ele>
        <time>2020-07-22T06:52:29Z</time>
      </trkpt>
      <trkpt lat="44.87455" lon="6.40197">
        <ele>2160.22</ele>
        <time>2020-07-22T06:52:35Z</time>
      </trkpt>
      <trkpt lat="44.87465" lon="6.4021">
        <ele>2157.82</ele>
        <time>2020-07-22T06:52:44Z</time>
      </trkpt>
      <trkpt lat="44.87472" lon="6.40235">
        <ele>2154.45</ele>
        <time>2020-07-22T06:52:59Z</time>
      </trkpt>
      <trkpt lat="44.87475" lon="6.4024">
        <ele>2153.49</ele>
        <time>2020-07-22T06:53:03Z</time>
      </trkpt>
      <trkpt lat="44.87478" lon="6.40248">
        <ele>2153.01</ele>
        <time>2020-07-22T06:53:09Z</time>
      </trkpt>
      <trkpt lat="44.8748" lon="6.40268">
        <ele>2149.16</ele>
        <time>2020-07-22T06:53:21Z</time>
      </trkpt>
      <trkpt lat="44.87491" lon="6.40287">
        <ele>2145.8</ele>
        <time>2020-07-22T06:53:38Z</time>
      </trkpt>
      <trkpt lat="44.87492" lon="6.40289">
        <ele>2145.8</ele>
        <time>2020-07-22T06:53:39Z</time>
      </trkpt>
      <trkpt lat="44.87496" lon="6.40295">
        <ele>2145.32</ele>
        <time>2020-07-22T06:53:43Z</time>
      </trkpt>
      <trkpt lat="44.87506" lon="6.40318">
        <ele>2142.44</ele>
        <time>2020-07-22T06:54:01Z</time>
      </trkpt>
      <trkpt lat="44.87509" lon="6.40326">
        <ele>2140.51</ele>
        <time>2020-07-22T06:54:07Z</time>
      </trkpt>
      <trkpt lat="44.87513" lon="6.4034">
        <ele>2137.63</ele>
        <time>2020-07-22T06:54:16Z</time>
      </trkpt>
      <trkpt lat="44.87516" lon="6.40354">
        <ele>2135.23</ele>
        <time>2020-07-22T06:54:24Z</time>
      </trkpt>
      <trkpt lat="44.87523" lon="6.40378">
        <ele>2131.86</ele>
        <time>2020-07-22T06:54:38Z</time>
      </trkpt>
      <trkpt lat="44.87525" lon="6.40385">
        <ele>2130.9</ele>
        <time>2020-07-22T06:54:42Z</time>
      </trkpt>
      <trkpt lat="44.87529" lon="6.40399">
        <ele>2127.53</ele>
        <time>2020-07-22T06:54:53Z</time>
      </trkpt>
      <trkpt lat="44.87529" lon="6.40402">
        <ele>2127.53</ele>
        <time>2020-07-22T06:54:55Z</time>
      </trkpt>
      <trkpt lat="44.87535" lon="6.40413">
        <ele>2125.13</ele>
        <time>2020-07-22T06:55:07Z</time>
      </trkpt>
      <trkpt lat="44.87532" lon="6.40434">
        <ele>2121.29</ele>
        <time>2020-07-22T06:55:22Z</time>
      </trkpt>
      <trkpt lat="44.87529" lon="6.40441">
        <ele>2120.32</ele>
        <time>2020-07-22T06:55:26Z</time>
      </trkpt>
      <trkpt lat="44.87526" lon="6.40449">
        <ele>2119.84</ele>
        <time>2020-07-22T06:55:30Z</time>
      </trkpt>
      <trkpt lat="44.87524" lon="6.40456">
        <ele>2119.36</ele>
        <time>2020-07-22T06:55:33Z</time>
      </trkpt>
      <trkpt lat="44.8752" lon="6.40462">
        <ele>2118.4</ele>
        <time>2020-07-22T06:55:37Z</time>
      </trkpt>
      <trkpt lat="44.87518" lon="6.40466">
        <ele>2117.44</ele>
        <time>2020-07-22T06:55:40Z</time>
      </trkpt>
      <trkpt lat="44.87518" lon="6.405">
        <ele>2114.08</ele>
        <time>2020-07-22T06:55:52Z</time>
      </trkpt>
      <trkpt lat="44.87512" lon="6.40525">
        <ele>2111.19</ele>
        <time>2020-07-22T06:56:06Z</time>
      </trkpt>
      <trkpt lat="44.87508" lon="6.40549">
        <ele>2107.83</ele>
        <time>2020-07-22T06:56:19Z</time>
      </trkpt>
      <trkpt lat="44.87507" lon="6.40547">
        <ele>2105.42</ele>
        <time>2020-07-22T06:56:26Z</time>
      </trkpt>
      <trkpt lat="44.87502" lon="6.40536">
        <ele>2103.5</ele>
        <time>2020-07-22T06:56:34Z</time>
      </trkpt>
      <trkpt lat="44.87502" lon="6.40533">
        <ele>2103.02</ele>
        <time>2020-07-22T06:56:36Z</time>
      </trkpt>
      <trkpt lat="44.8749" lon="6.40512">
        <ele>2099.66</ele>
        <time>2020-07-22T06:56:51Z</time>
      </trkpt>
      <trkpt lat="44.87488" lon="6.40511">
        <ele>2099.66</ele>
        <time>2020-07-22T06:56:52Z</time>
      </trkpt>
      <trkpt lat="44.87474" lon="6.40485">
        <ele>2094.85</ele>
        <time>2020-07-22T06:57:11Z</time>
      </trkpt>
      <trkpt lat="44.87469" lon="6.40479">
        <ele>2093.41</ele>
        <time>2020-07-22T06:57:18Z</time>
      </trkpt>
      <trkpt lat="44.87454" lon="6.40464">
        <ele>2090.04</ele>
        <time>2020-07-22T06:57:32Z</time>
      </trkpt>
      <trkpt lat="44.8745" lon="6.40459">
        <ele>2087.16</ele>
        <time>2020-07-22T06:57:44Z</time>
      </trkpt>
      <trkpt lat="44.87458" lon="6.40475">
        <ele>2083.31</ele>
        <time>2020-07-22T06:57:55Z</time>
      </trkpt>
      <trkpt lat="44.87459" lon="6.40476">
        <ele>2083.31</ele>
        <time>2020-07-22T06:57:56Z</time>
      </trkpt>
      <trkpt lat="44.87458" lon="6.40486">
        <ele>2081.39</ele>
        <time>2020-07-22T06:58:02Z</time>
      </trkpt>
      <trkpt lat="44.8746" lon="6.40504">
        <ele>2078.03</ele>
        <time>2020-07-22T06:58:17Z</time>
      </trkpt>
      <trkpt lat="44.87457" lon="6.40519">
        <ele>2074.18</ele>
        <time>2020-07-22T06:58:30Z</time>
      </trkpt>
      <trkpt lat="44.87456" lon="6.40532">
        <ele>2071.3</ele>
        <time>2020-07-22T06:58:38Z</time>
      </trkpt>
      <trkpt lat="44.87453" lon="6.40551">
        <ele>2067.45</ele>
        <time>2020-07-22T06:58:51Z</time>
      </trkpt>
      <trkpt lat="44.87452" lon="6.40557">
        <ele>2066.49</ele>
        <time>2020-07-22T06:58:55Z</time>
      </trkpt>
      <trkpt lat="44.87451" lon="6.40579">
        <ele>2063.13</ele>
        <time>2020-07-22T06:59:07Z</time>
      </trkpt>
      <trkpt lat="44.87449" lon="6.40602">
        <ele>2059.76</ele>
        <time>2020-07-22T06:59:19Z</time>
      </trkpt>
      <trkpt lat="44.8745" lon="6.40618">
        <ele>2057.84</ele>
        <time>2020-07-22T06:59:26Z</time>
      </trkpt>
      <trkpt lat="44.87454" lon="6.40635">
        <ele>2056.4</ele>
        <time>2020-07-22T06:59:35Z</time>
      </trkpt>
      <trkpt lat="44.87453" lon="6.40649">
        <ele>2056.4</ele>
        <time>2020-07-22T06:59:47Z</time>
      </trkpt>
      <trkpt lat="44.8745" lon="6.4066">
        <ele>2053.51</ele>
        <time>2020-07-22T06:59:55Z</time>
      </trkpt>
      <trkpt lat="44.87449" lon="6.40672">
        <ele>2052.07</ele>
        <time>2020-07-22T07:00:02Z</time>
      </trkpt>
      <trkpt lat="44.87444" lon="6.40684">
        <ele>2048.23</ele>
        <time>2020-07-22T07:00:13Z</time>
      </trkpt>
      <trkpt lat="44.87443" lon="6.40685">
        <ele>2048.23</ele>
        <time>2020-07-22T07:00:14Z</time>
      </trkpt>
      <trkpt lat="44.8744" lon="6.40701">
        <ele>2044.86</ele>
        <time>2020-07-22T07:00:26Z</time>
      </trkpt>
      <trkpt lat="44.87437" lon="6.40713">
        <ele>2041.98</ele>
        <time>2020-07-22T07:00:36Z</time>
      </trkpt>
      <trkpt lat="44.87435" lon="6.40712">
        <ele>2041.5</ele>
        <time>2020-07-22T07:00:38Z</time>
      </trkpt>
      <trkpt lat="44.87428" lon="6.40703">
        <ele>2039.09</ele>
        <time>2020-07-22T07:00:47Z</time>
      </trkpt>
      <trkpt lat="44.87426" lon="6.40714">
        <ele>2037.17</ele>
        <time>2020-07-22T07:00:54Z</time>
      </trkpt>
      <trkpt lat="44.87428" lon="6.40724">
        <ele>2036.69</ele>
        <time>2020-07-22T07:00:58Z</time>
      </trkpt>
      <trkpt lat="44.87432" lon="6.40736">
        <ele>2034.29</ele>
        <time>2020-07-22T07:01:06Z</time>
      </trkpt>
      <trkpt lat="44.87433" lon="6.40744">
        <ele>2033.33</ele>
        <time>2020-07-22T07:01:12Z</time>
      </trkpt>
      <trkpt lat="44.87435" lon="6.40749">
        <ele>2031.88</ele>
        <time>2020-07-22T07:01:15Z</time>
      </trkpt>
      <trkpt lat="44.87446" lon="6.40772">
        <ele>2028.52</ele>
        <time>2020-07-22T07:01:33Z</time>
      </trkpt>
      <trkpt lat="44.87452" lon="6.40775">
        <ele>2027.56</ele>
        <time>2020-07-22T07:01:40Z</time>
      </trkpt>
      <trkpt lat="44.87467" lon="6.4077">
        <ele>2028.04</ele>
        <time>2020-07-22T07:02:00Z</time>
      </trkpt>
      <trkpt lat="44.87473" lon="6.40784">
        <ele>2029</ele>
        <time>2020-07-22T07:02:19Z</time>
      </trkpt>
      <trkpt lat="44.87473" lon="6.40787">
        <ele>2028.04</ele>
        <time>2020-07-22T07:02:22Z</time>
      </trkpt>
      <trkpt lat="44.87469" lon="6.408">
        <ele>2025.15</ele>
        <time>2020-07-22T07:02:33Z</time>
      </trkpt>
      <trkpt lat="44.87461" lon="6.40814">
        <ele>2022.27</ele>
        <time>2020-07-22T07:02:52Z</time>
      </trkpt>
      <trkpt lat="44.87461" lon="6.40807">
        <ele>2021.79</ele>
        <time>2020-07-22T07:03:29Z</time>
      </trkpt>
      <trkpt lat="44.87473" lon="6.40818">
        <ele>2021.79</ele>
        <time>2020-07-22T07:04:02Z</time>
      </trkpt>
      <trkpt lat="44.87471" lon="6.40819">
        <ele>2021.79</ele>
        <time>2020-07-22T07:04:28Z</time>
      </trkpt>
      <trkpt lat="44.87476" lon="6.40814">
        <ele>2022.75</ele>
        <time>2020-07-22T07:04:44Z</time>
      </trkpt>
      <trkpt lat="44.87479" lon="6.40811">
        <ele>2023.71</ele>
        <time>2020-07-22T07:04:48Z</time>
      </trkpt>
      <trkpt lat="44.87484" lon="6.40798">
        <ele>2027.08</ele>
        <time>2020-07-22T07:05:00Z</time>
      </trkpt>
      <trkpt lat="44.87476" lon="6.40777">
        <ele>2028.52</ele>
        <time>2020-07-22T07:05:17Z</time>
      </trkpt>
      <trkpt lat="44.87471" lon="6.40778">
        <ele>2027.08</ele>
        <time>2020-07-22T07:05:23Z</time>
      </trkpt>
      <trkpt lat="44.8747" lon="6.40778">
        <ele>2027.08</ele>
        <time>2020-07-22T07:05:24Z</time>
      </trkpt>
      <trkpt lat="44.87459" lon="6.40783">
        <ele>2026.6</ele>
        <time>2020-07-22T07:05:34Z</time>
      </trkpt>
      <trkpt lat="44.87449" lon="6.40781">
        <ele>2027.08</ele>
        <time>2020-07-22T07:05:42Z</time>
      </trkpt>
      <trkpt lat="44.87447" lon="6.40778">
        <ele>2027.56</ele>
        <time>2020-07-22T07:05:45Z</time>
      </trkpt>
      <trkpt lat="44.87438" lon="6.40753">
        <ele>2030.92</ele>
        <time>2020-07-22T07:06:02Z</time>
      </trkpt>
      <trkpt lat="44.87436" lon="6.40747">
        <ele>2031.4</ele>
        <time>2020-07-22T07:06:06Z</time>
      </trkpt>
      <trkpt lat="44.87437" lon="6.40742">
        <ele>2031.88</ele>
        <time>2020-07-22T07:06:09Z</time>
      </trkpt>
      <trkpt lat="44.87436" lon="6.40736">
        <ele>2032.84</ele>
        <time>2020-07-22T07:06:13Z</time>
      </trkpt>
      <trkpt lat="44.87431" lon="6.40726">
        <ele>2034.77</ele>
        <time>2020-07-22T07:06:20Z</time>
      </trkpt>
      <trkpt lat="44.87433" lon="6.40719">
        <ele>2035.25</ele>
        <time>2020-07-22T07:06:48Z</time>
      </trkpt>
      <trkpt lat="44.87435" lon="6.40727">
        <ele>2035.25</ele>
        <time>2020-07-22T07:07:11Z</time>
      </trkpt>
      <trkpt lat="44.87437" lon="6.40733">
        <ele>2033.81</ele>
        <time>2020-07-22T07:07:16Z</time>
      </trkpt>
      <trkpt lat="44.87439" lon="6.40753">
        <ele>2030.44</ele>
        <time>2020-07-22T07:07:29Z</time>
      </trkpt>
      <trkpt lat="44.87444" lon="6.40765">
        <ele>2029</ele>
        <time>2020-07-22T07:07:39Z</time>
      </trkpt>
      <trkpt lat="44.87454" lon="6.40782">
        <ele>2026.6</ele>
        <time>2020-07-22T07:07:52Z</time>
      </trkpt>
      <trkpt lat="44.87471" lon="6.40775">
        <ele>2027.56</ele>
        <time>2020-07-22T07:08:10Z</time>
      </trkpt>
      <trkpt lat="44.87477" lon="6.40776">
        <ele>2027.56</ele>
        <time>2020-07-22T07:08:17Z</time>
      </trkpt>
      <trkpt lat="44.87479" lon="6.40782">
        <ele>2028.04</ele>
        <time>2020-07-22T07:08:21Z</time>
      </trkpt>
      <trkpt lat="44.87478" lon="6.4079">
        <ele>2028.04</ele>
        <time>2020-07-22T07:08:26Z</time>
      </trkpt>
      <trkpt lat="44.87478" lon="6.40798">
        <ele>2026.6</ele>
        <time>2020-07-22T07:08:30Z</time>
      </trkpt>
      <trkpt lat="44.87473" lon="6.40809">
        <ele>2023.23</ele>
        <time>2020-07-22T07:08:41Z</time>
      </trkpt>
      <trkpt lat="44.87469" lon="6.40822">
        <ele>2020.35</ele>
        <time>2020-07-22T07:08:55Z</time>
      </trkpt>
      <trkpt lat="44.87467" lon="6.40828">
        <ele>2019.39</ele>
        <time>2020-07-22T07:09:00Z</time>
      </trkpt>
      <trkpt lat="44.87466" lon="6.40838">
        <ele>2017.46</ele>
        <time>2020-07-22T07:09:06Z</time>
      </trkpt>
      <trkpt lat="44.87461" lon="6.40862">
        <ele>2014.1</ele>
        <time>2020-07-22T07:09:19Z</time>
      </trkpt>
      <trkpt lat="44.87458" lon="6.40881">
        <ele>2010.25</ele>
        <time>2020-07-22T07:09:32Z</time>
      </trkpt>
      <trkpt lat="44.87459" lon="6.40893">
        <ele>2007.85</ele>
        <time>2020-07-22T07:09:39Z</time>
      </trkpt>
      <trkpt lat="44.87468" lon="6.40914">
        <ele>2004.49</ele>
        <time>2020-07-22T07:09:53Z</time>
      </trkpt>
      <trkpt lat="44.87473" lon="6.40921">
        <ele>2004.01</ele>
        <time>2020-07-22T07:10:01Z</time>
      </trkpt>
      <trkpt lat="44.87471" lon="6.40932">
        <ele>2002.56</ele>
        <time>2020-07-22T07:10:07Z</time>
      </trkpt>
      <trkpt lat="44.87471" lon="6.40939">
        <ele>2001.12</ele>
        <time>2020-07-22T07:10:13Z</time>
      </trkpt>
      <trkpt lat="44.87478" lon="6.40953">
        <ele>1999.2</ele>
        <time>2020-07-22T07:10:24Z</time>
      </trkpt>
      <trkpt lat="44.87476" lon="6.40967">
        <ele>1996.8</ele>
        <time>2020-07-22T07:10:33Z</time>
      </trkpt>
      <trkpt lat="44.87475" lon="6.40972">
        <ele>1995.35</ele>
        <time>2020-07-22T07:10:36Z</time>
      </trkpt>
      <trkpt lat="44.87474" lon="6.40995">
        <ele>1991.51</ele>
        <time>2020-07-22T07:10:48Z</time>
      </trkpt>
      <trkpt lat="44.87474" lon="6.4103">
        <ele>1988.14</ele>
        <time>2020-07-22T07:11:05Z</time>
      </trkpt>
      <trkpt lat="44.87474" lon="6.41049">
        <ele>1984.3</ele>
        <time>2020-07-22T07:11:19Z</time>
      </trkpt>
      <trkpt lat="44.87469" lon="6.41071">
        <ele>1981.41</ele>
        <time>2020-07-22T07:11:33Z</time>
      </trkpt>
      <trkpt lat="44.87466" lon="6.41087">
        <ele>1978.05</ele>
        <time>2020-07-22T07:11:45Z</time>
      </trkpt>
      <trkpt lat="44.87461" lon="6.41107">
        <ele>1974.69</ele>
        <time>2020-07-22T07:11:55Z</time>
      </trkpt>
      <trkpt lat="44.87461" lon="6.4111">
        <ele>1974.2</ele>
        <time>2020-07-22T07:11:57Z</time>
      </trkpt>
      <trkpt lat="44.87461" lon="6.41114">
        <ele>1973.72</ele>
        <time>2020-07-22T07:11:59Z</time>
      </trkpt>
      <trkpt lat="44.87457" lon="6.41122">
        <ele>1970.36</ele>
        <time>2020-07-22T07:12:13Z</time>
      </trkpt>
      <trkpt lat="44.87449" lon="6.41104">
        <ele>1967.48</ele>
        <time>2020-07-22T07:12:26Z</time>
      </trkpt>
      <trkpt lat="44.87446" lon="6.41085">
        <ele>1964.11</ele>
        <time>2020-07-22T07:12:38Z</time>
      </trkpt>
      <trkpt lat="44.87438" lon="6.41065">
        <ele>1961.23</ele>
        <time>2020-07-22T07:12:51Z</time>
      </trkpt>
      <trkpt lat="44.8743" lon="6.41046">
        <ele>1957.86</ele>
        <time>2020-07-22T07:13:04Z</time>
      </trkpt>
      <trkpt lat="44.87421" lon="6.41028">
        <ele>1954.98</ele>
        <time>2020-07-22T07:13:16Z</time>
      </trkpt>
      <trkpt lat="44.87411" lon="6.41011">
        <ele>1951.61</ele>
        <time>2020-07-22T07:13:31Z</time>
      </trkpt>
      <trkpt lat="44.87401" lon="6.41">
        <ele>1950.65</ele>
        <time>2020-07-22T07:13:42Z</time>
      </trkpt>
      <trkpt lat="44.87398" lon="6.41002">
        <ele>1950.65</ele>
        <time>2020-07-22T07:13:45Z</time>
      </trkpt>
      <trkpt lat="44.87398" lon="6.41017">
        <ele>1946.33</ele>
        <time>2020-07-22T07:13:57Z</time>
      </trkpt>
      <trkpt lat="44.87403" lon="6.41041">
        <ele>1943.92</ele>
        <time>2020-07-22T07:14:14Z</time>
      </trkpt>
      <trkpt lat="44.87404" lon="6.41047">
        <ele>1942.96</ele>
        <time>2020-07-22T07:14:18Z</time>
      </trkpt>
      <trkpt lat="44.87405" lon="6.41057">
        <ele>1942</ele>
        <time>2020-07-22T07:14:23Z</time>
      </trkpt>
      <trkpt lat="44.87406" lon="6.41082">
        <ele>1938.16</ele>
        <time>2020-07-22T07:14:37Z</time>
      </trkpt>
      <trkpt lat="44.87405" lon="6.41087">
        <ele>1937.67</ele>
        <time>2020-07-22T07:14:40Z</time>
      </trkpt>
      <trkpt lat="44.87397" lon="6.4111">
        <ele>1933.83</ele>
        <time>2020-07-22T07:14:56Z</time>
      </trkpt>
      <trkpt lat="44.87395" lon="6.41121">
        <ele>1931.43</ele>
        <time>2020-07-22T07:15:06Z</time>
      </trkpt>
      <trkpt lat="44.87397" lon="6.41131">
        <ele>1929.98</ele>
        <time>2020-07-22T07:15:13Z</time>
      </trkpt>
      <trkpt lat="44.87399" lon="6.41149">
        <ele>1927.1</ele>
        <time>2020-07-22T07:15:24Z</time>
      </trkpt>
      <trkpt lat="44.87398" lon="6.41158">
        <ele>1926.14</ele>
        <time>2020-07-22T07:15:29Z</time>
      </trkpt>
      <trkpt lat="44.87398" lon="6.41162">
        <ele>1925.66</ele>
        <time>2020-07-22T07:15:31Z</time>
      </trkpt>
      <trkpt lat="44.87398" lon="6.41179">
        <ele>1922.29</ele>
        <time>2020-07-22T07:15:43Z</time>
      </trkpt>
      <trkpt lat="44.87389" lon="6.4118">
        <ele>1919.41</ele>
        <time>2020-07-22T07:16:00Z</time>
      </trkpt>
      <trkpt lat="44.87384" lon="6.41174">
        <ele>1918.45</ele>
        <time>2020-07-22T07:16:05Z</time>
      </trkpt>
      <trkpt lat="44.87374" lon="6.41157">
        <ele>1914.12</ele>
        <time>2020-07-22T07:16:20Z</time>
      </trkpt>
      <trkpt lat="44.87357" lon="6.41129">
        <ele>1910.76</ele>
        <time>2020-07-22T07:16:39Z</time>
      </trkpt>
      <trkpt lat="44.87348" lon="6.41105">
        <ele>1908.83</ele>
        <time>2020-07-22T07:16:54Z</time>
      </trkpt>
      <trkpt lat="44.8734" lon="6.41111">
        <ele>1906.91</ele>
        <time>2020-07-22T07:17:03Z</time>
      </trkpt>
      <trkpt lat="44.87337" lon="6.41113">
        <ele>1905.95</ele>
        <time>2020-07-22T07:17:06Z</time>
      </trkpt>
      <trkpt lat="44.87327" lon="6.4112">
        <ele>1902.59</ele>
        <time>2020-07-22T07:17:22Z</time>
      </trkpt>
      <trkpt lat="44.8733" lon="6.41127">
        <ele>1901.14</ele>
        <time>2020-07-22T07:17:27Z</time>
      </trkpt>
      <trkpt lat="44.87335" lon="6.41144">
        <ele>1898.74</ele>
        <time>2020-07-22T07:17:41Z</time>
      </trkpt>
      <trkpt lat="44.87339" lon="6.41149">
        <ele>1894.9</ele>
        <time>2020-07-22T07:17:56Z</time>
      </trkpt>
      <trkpt lat="44.8734" lon="6.4116">
        <ele>1892.97</ele>
        <time>2020-07-22T07:18:07Z</time>
      </trkpt>
      <trkpt lat="44.87344" lon="6.41182">
        <ele>1889.13</ele>
        <time>2020-07-22T07:18:22Z</time>
      </trkpt>
      <trkpt lat="44.87341" lon="6.41182">
        <ele>1888.65</ele>
        <time>2020-07-22T07:18:25Z</time>
      </trkpt>
      <trkpt lat="44.87331" lon="6.41181">
        <ele>1887.69</ele>
        <time>2020-07-22T07:18:32Z</time>
      </trkpt>
      <trkpt lat="44.87327" lon="6.41184">
        <ele>1885.76</ele>
        <time>2020-07-22T07:18:41Z</time>
      </trkpt>
      <trkpt lat="44.87333" lon="6.41198">
        <ele>1883.84</ele>
        <time>2020-07-22T07:18:51Z</time>
      </trkpt>
      <trkpt lat="44.87337" lon="6.41223">
        <ele>1880</ele>
        <time>2020-07-22T07:19:10Z</time>
      </trkpt>
      <trkpt lat="44.87319" lon="6.41213">
        <ele>1877.11</ele>
        <time>2020-07-22T07:19:28Z</time>
      </trkpt>
      <trkpt lat="44.87321" lon="6.4123">
        <ele>1873.75</ele>
        <time>2020-07-22T07:19:44Z</time>
      </trkpt>
      <trkpt lat="44.87317" lon="6.41242">
        <ele>1870.38</ele>
        <time>2020-07-22T07:20:01Z</time>
      </trkpt>
      <trkpt lat="44.87319" lon="6.41258">
        <ele>1867.98</ele>
        <time>2020-07-22T07:20:21Z</time>
      </trkpt>
      <trkpt lat="44.87321" lon="6.41277">
        <ele>1865.58</ele>
        <time>2020-07-22T07:20:37Z</time>
      </trkpt>
      <trkpt lat="44.87326" lon="6.41304">
        <ele>1860.77</ele>
        <time>2020-07-22T07:20:56Z</time>
      </trkpt>
      <trkpt lat="44.87308" lon="6.41294">
        <ele>1858.37</ele>
        <time>2020-07-22T07:21:14Z</time>
      </trkpt>
      <trkpt lat="44.87298" lon="6.41305">
        <ele>1855.48</ele>
        <time>2020-07-22T07:21:31Z</time>
      </trkpt>
      <trkpt lat="44.8731" lon="6.41318">
        <ele>1852.12</ele>
        <time>2020-07-22T07:21:46Z</time>
      </trkpt>
      <trkpt lat="44.87317" lon="6.41342">
        <ele>1848.75</ele>
        <time>2020-07-22T07:22:04Z</time>
      </trkpt>
      <trkpt lat="44.87312" lon="6.41361">
        <ele>1845.39</ele>
        <time>2020-07-22T07:22:19Z</time>
      </trkpt>
      <trkpt lat="44.87308" lon="6.41362">
        <ele>1844.43</ele>
        <time>2020-07-22T07:22:23Z</time>
      </trkpt>
      <trkpt lat="44.87295" lon="6.41364">
        <ele>1842.02</ele>
        <time>2020-07-22T07:22:36Z</time>
      </trkpt>
      <trkpt lat="44.87292" lon="6.41365">
        <ele>1841.06</ele>
        <time>2020-07-22T07:22:38Z</time>
      </trkpt>
      <trkpt lat="44.87292" lon="6.41378">
        <ele>1839.14</ele>
        <time>2020-07-22T07:22:51Z</time>
      </trkpt>
      <trkpt lat="44.87291" lon="6.41387">
        <ele>1836.26</ele>
        <time>2020-07-22T07:23:06Z</time>
      </trkpt>
      <trkpt lat="44.87282" lon="6.41394">
        <ele>1833.37</ele>
        <time>2020-07-22T07:23:16Z</time>
      </trkpt>
      <trkpt lat="44.87284" lon="6.41402">
        <ele>1832.41</ele>
        <time>2020-07-22T07:23:22Z</time>
      </trkpt>
      <trkpt lat="44.87294" lon="6.41418">
        <ele>1829.53</ele>
        <time>2020-07-22T07:23:36Z</time>
      </trkpt>
      <trkpt lat="44.87295" lon="6.4142">
        <ele>1829.53</ele>
        <time>2020-07-22T07:23:38Z</time>
      </trkpt>
      <trkpt lat="44.87304" lon="6.41427">
        <ele>1827.6</ele>
        <time>2020-07-22T07:23:48Z</time>
      </trkpt>
      <trkpt lat="44.87318" lon="6.41429">
        <ele>1824.24</ele>
        <time>2020-07-22T07:24:02Z</time>
      </trkpt>
      <trkpt lat="44.8732" lon="6.41432">
        <ele>1822.8</ele>
        <time>2020-07-22T07:24:06Z</time>
      </trkpt>
      <trkpt lat="44.87315" lon="6.41447">
        <ele>1821.84</ele>
        <time>2020-07-22T07:24:16Z</time>
      </trkpt>
      <trkpt lat="44.87311" lon="6.41475">
        <ele>1818.47</ele>
        <time>2020-07-22T07:24:32Z</time>
      </trkpt>
      <trkpt lat="44.87298" lon="6.41495">
        <ele>1814.63</ele>
        <time>2020-07-22T07:24:50Z</time>
      </trkpt>
      <trkpt lat="44.87296" lon="6.41497">
        <ele>1814.15</ele>
        <time>2020-07-22T07:24:52Z</time>
      </trkpt>
      <trkpt lat="44.87297" lon="6.41523">
        <ele>1811.26</ele>
        <time>2020-07-22T07:25:11Z</time>
      </trkpt>
      <trkpt lat="44.87291" lon="6.41555">
        <ele>1807.9</ele>
        <time>2020-07-22T07:25:30Z</time>
      </trkpt>
      <trkpt lat="44.87285" lon="6.41568">
        <ele>1804.53</ele>
        <time>2020-07-22T07:25:44Z</time>
      </trkpt>
      <trkpt lat="44.87282" lon="6.4158">
        <ele>1801.65</ele>
        <time>2020-07-22T07:25:55Z</time>
      </trkpt>
      <trkpt lat="44.87272" lon="6.41594">
        <ele>1798.28</ele>
        <time>2020-07-22T07:26:09Z</time>
      </trkpt>
      <trkpt lat="44.87265" lon="6.41613">
        <ele>1794.92</ele>
        <time>2020-07-22T07:26:22Z</time>
      </trkpt>
      <trkpt lat="44.87262" lon="6.41638">
        <ele>1791.07</ele>
        <time>2020-07-22T07:26:38Z</time>
      </trkpt>
      <trkpt lat="44.87262" lon="6.41646">
        <ele>1791.07</ele>
        <time>2020-07-22T07:26:41Z</time>
      </trkpt>
      <trkpt lat="44.87266" lon="6.41655">
        <ele>1790.11</ele>
        <time>2020-07-22T07:26:47Z</time>
      </trkpt>
      <trkpt lat="44.87273" lon="6.41669">
        <ele>1786.75</ele>
        <time>2020-07-22T07:27:06Z</time>
      </trkpt>
      <trkpt lat="44.87274" lon="6.4168">
        <ele>1784.82</ele>
        <time>2020-07-22T07:27:14Z</time>
      </trkpt>
      <trkpt lat="44.87278" lon="6.41704">
        <ele>1781.94</ele>
        <time>2020-07-22T07:27:35Z</time>
      </trkpt>
      <trkpt lat="44.87278" lon="6.41708">
        <ele>1781.46</ele>
        <time>2020-07-22T07:27:38Z</time>
      </trkpt>
      <trkpt lat="44.87281" lon="6.4173">
        <ele>1778.1</ele>
        <time>2020-07-22T07:27:55Z</time>
      </trkpt>
      <trkpt lat="44.87281" lon="6.41747">
        <ele>1775.21</ele>
        <time>2020-07-22T07:28:07Z</time>
      </trkpt>
      <trkpt lat="44.87288" lon="6.41768">
        <ele>1771.37</ele>
        <time>2020-07-22T07:28:21Z</time>
      </trkpt>
      <trkpt lat="44.87287" lon="6.41801">
        <ele>1768</ele>
        <time>2020-07-22T07:28:39Z</time>
      </trkpt>
      <trkpt lat="44.87269" lon="6.41815">
        <ele>1765.6</ele>
        <time>2020-07-22T07:28:58Z</time>
      </trkpt>
      <trkpt lat="44.87263" lon="6.41831">
        <ele>1762.23</ele>
        <time>2020-07-22T07:29:12Z</time>
      </trkpt>
      <trkpt lat="44.87266" lon="6.41852">
        <ele>1758.87</ele>
        <time>2020-07-22T07:29:25Z</time>
      </trkpt>
      <trkpt lat="44.87267" lon="6.41861">
        <ele>1757.91</ele>
        <time>2020-07-22T07:29:32Z</time>
      </trkpt>
      <trkpt lat="44.87268" lon="6.41878">
        <ele>1755.02</ele>
        <time>2020-07-22T07:29:44Z</time>
      </trkpt>
      <trkpt lat="44.87268" lon="6.4188">
        <ele>1755.02</ele>
        <time>2020-07-22T07:29:45Z</time>
      </trkpt>
      <trkpt lat="44.87263" lon="6.419">
        <ele>1751.18</ele>
        <time>2020-07-22T07:30:01Z</time>
      </trkpt>
      <trkpt lat="44.87263" lon="6.41915">
        <ele>1748.78</ele>
        <time>2020-07-22T07:30:11Z</time>
      </trkpt>
      <trkpt lat="44.87263" lon="6.41937">
        <ele>1745.89</ele>
        <time>2020-07-22T07:30:23Z</time>
      </trkpt>
      <trkpt lat="44.87268" lon="6.41943">
        <ele>1745.41</ele>
        <time>2020-07-22T07:30:28Z</time>
      </trkpt>
      <trkpt lat="44.87286" lon="6.41965">
        <ele>1742.53</ele>
        <time>2020-07-22T07:30:48Z</time>
      </trkpt>
      <trkpt lat="44.87298" lon="6.41992">
        <ele>1739.64</ele>
        <time>2020-07-22T07:31:09Z</time>
      </trkpt>
      <trkpt lat="44.87308" lon="6.42015">
        <ele>1736.28</ele>
        <time>2020-07-22T07:31:25Z</time>
      </trkpt>
      <trkpt lat="44.87311" lon="6.42025">
        <ele>1735.8</ele>
        <time>2020-07-22T07:31:30Z</time>
      </trkpt>
      <trkpt lat="44.87318" lon="6.42035">
        <ele>1733.88</ele>
        <time>2020-07-22T07:31:36Z</time>
      </trkpt>
      <trkpt lat="44.87321" lon="6.42041">
        <ele>1733.39</ele>
        <time>2020-07-22T07:31:40Z</time>
      </trkpt>
      <trkpt lat="44.87329" lon="6.42063">
        <ele>1730.51</ele>
        <time>2020-07-22T07:31:54Z</time>
      </trkpt>
      <trkpt lat="44.87346" lon="6.42099">
        <ele>1727.63</ele>
        <time>2020-07-22T07:32:16Z</time>
      </trkpt>
      <trkpt lat="44.87358" lon="6.42121">
        <ele>1726.67</ele>
        <time>2020-07-22T07:32:35Z</time>
      </trkpt>
      <trkpt lat="44.87357" lon="6.4214">
        <ele>1725.7</ele>
        <time>2020-07-22T07:32:54Z</time>
      </trkpt>
      <trkpt lat="44.87358" lon="6.42171">
        <ele>1724.74</ele>
        <time>2020-07-22T07:33:13Z</time>
      </trkpt>
      <trkpt lat="44.8736" lon="6.42191">
        <ele>1724.74</ele>
        <time>2020-07-22T07:33:24Z</time>
      </trkpt>
      <trkpt lat="44.8736" lon="6.42203">
        <ele>1724.74</ele>
        <time>2020-07-22T07:33:30Z</time>
      </trkpt>
      <trkpt lat="44.87363" lon="6.42211">
        <ele>1723.78</ele>
        <time>2020-07-22T07:33:35Z</time>
      </trkpt>
      <trkpt lat="44.8737" lon="6.42237">
        <ele>1722.34</ele>
        <time>2020-07-22T07:33:51Z</time>
      </trkpt>
      <trkpt lat="44.87371" lon="6.42252">
        <ele>1719.94</ele>
        <time>2020-07-22T07:34:00Z</time>
      </trkpt>
      <trkpt lat="44.87365" lon="6.42278">
        <ele>1716.57</ele>
        <time>2020-07-22T07:34:18Z</time>
      </trkpt>
      <trkpt lat="44.8737" lon="6.42312">
        <ele>1713.21</ele>
        <time>2020-07-22T07:34:40Z</time>
      </trkpt>
      <trkpt lat="44.87375" lon="6.42338">
        <ele>1710.8</ele>
        <time>2020-07-22T07:34:53Z</time>
      </trkpt>
      <trkpt lat="44.8738" lon="6.42375">
        <ele>1706.96</ele>
        <time>2020-07-22T07:35:13Z</time>
      </trkpt>
      <trkpt lat="44.8738" lon="6.42404">
        <ele>1704.55</ele>
        <time>2020-07-22T07:35:31Z</time>
      </trkpt>
      <trkpt lat="44.87394" lon="6.42412">
        <ele>1701.67</ele>
        <time>2020-07-22T07:35:46Z</time>
      </trkpt>
      <trkpt lat="44.8741" lon="6.42424">
        <ele>1698.31</ele>
        <time>2020-07-22T07:36:04Z</time>
      </trkpt>
      <trkpt lat="44.87419" lon="6.42428">
        <ele>1695.42</ele>
        <time>2020-07-22T07:36:16Z</time>
      </trkpt>
      <trkpt lat="44.87433" lon="6.42441">
        <ele>1692.06</ele>
        <time>2020-07-22T07:36:35Z</time>
      </trkpt>
      <trkpt lat="44.87426" lon="6.42466">
        <ele>1688.69</ele>
        <time>2020-07-22T07:36:51Z</time>
      </trkpt>
      <trkpt lat="44.87428" lon="6.42468">
        <ele>1688.69</ele>
        <time>2020-07-22T07:36:52Z</time>
      </trkpt>
      <trkpt lat="44.87442" lon="6.42483">
        <ele>1685.33</ele>
        <time>2020-07-22T07:37:08Z</time>
      </trkpt>
      <trkpt lat="44.87449" lon="6.42497">
        <ele>1682.93</ele>
        <time>2020-07-22T07:37:18Z</time>
      </trkpt>
      <trkpt lat="44.87455" lon="6.42505">
        <ele>1681.48</ele>
        <time>2020-07-22T07:37:23Z</time>
      </trkpt>
      <trkpt lat="44.87462" lon="6.42526">
        <ele>1679.08</ele>
        <time>2020-07-22T07:37:42Z</time>
      </trkpt>
      <trkpt lat="44.87469" lon="6.4255">
        <ele>1675.72</ele>
        <time>2020-07-22T07:37:56Z</time>
      </trkpt>
      <trkpt lat="44.87478" lon="6.42572">
        <ele>1672.83</ele>
        <time>2020-07-22T07:38:13Z</time>
      </trkpt>
      <trkpt lat="44.87483" lon="6.42592">
        <ele>1668.99</ele>
        <time>2020-07-22T07:38:30Z</time>
      </trkpt>
      <trkpt lat="44.87485" lon="6.42609">
        <ele>1666.1</ele>
        <time>2020-07-22T07:38:45Z</time>
      </trkpt>
      <trkpt lat="44.87502" lon="6.42629">
        <ele>1664.18</ele>
        <time>2020-07-22T07:39:04Z</time>
      </trkpt>
      <trkpt lat="44.87504" lon="6.42655">
        <ele>1660.81</ele>
        <time>2020-07-22T07:39:20Z</time>
      </trkpt>
      <trkpt lat="44.87513" lon="6.42689">
        <ele>1657.45</ele>
        <time>2020-07-22T07:39:34Z</time>
      </trkpt>
      <trkpt lat="44.87519" lon="6.42699">
        <ele>1654.57</ele>
        <time>2020-07-22T07:39:49Z</time>
      </trkpt>
      <trkpt lat="44.87535" lon="6.42718">
        <ele>1651.2</ele>
        <time>2020-07-22T07:40:05Z</time>
      </trkpt>
      <trkpt lat="44.87541" lon="6.42732">
        <ele>1647.36</ele>
        <time>2020-07-22T07:40:21Z</time>
      </trkpt>
      <trkpt lat="44.87547" lon="6.42747">
        <ele>1644.47</ele>
        <time>2020-07-22T07:40:37Z</time>
      </trkpt>
      <trkpt lat="44.87549" lon="6.42754">
        <ele>1641.59</ele>
        <time>2020-07-22T07:40:47Z</time>
      </trkpt>
      <trkpt lat="44.87561" lon="6.42789">
        <ele>1638.22</ele>
        <time>2020-07-22T07:41:04Z</time>
      </trkpt>
      <trkpt lat="44.87575" lon="6.42824">
        <ele>1634.86</ele>
        <time>2020-07-22T07:41:24Z</time>
      </trkpt>
      <trkpt lat="44.87593" lon="6.42855">
        <ele>1631.98</ele>
        <time>2020-07-22T07:41:46Z</time>
      </trkpt>
      <trkpt lat="44.87617" lon="6.42887">
        <ele>1629.57</ele>
        <time>2020-07-22T07:42:10Z</time>
      </trkpt>
      <trkpt lat="44.87642" lon="6.42906">
        <ele>1626.21</ele>
        <time>2020-07-22T07:42:31Z</time>
      </trkpt>
      <trkpt lat="44.87649" lon="6.42909">
        <ele>1625.73</ele>
        <time>2020-07-22T07:42:36Z</time>
      </trkpt>
      <trkpt lat="44.87672" lon="6.42935">
        <ele>1623.32</ele>
        <time>2020-07-22T07:42:58Z</time>
      </trkpt>
      <trkpt lat="44.87695" lon="6.42966">
        <ele>1621.88</ele>
        <time>2020-07-22T07:43:21Z</time>
      </trkpt>
      <trkpt lat="44.87706" lon="6.42976">
        <ele>1620.92</ele>
        <time>2020-07-22T07:43:44Z</time>
      </trkpt>
      <trkpt lat="44.87711" lon="6.43005">
        <ele>1618.04</ele>
        <time>2020-07-22T07:44:04Z</time>
      </trkpt>
      <trkpt lat="44.87702" lon="6.43057">
        <ele>1617.07</ele>
        <time>2020-07-22T07:44:27Z</time>
      </trkpt>
      <trkpt lat="44.8771" lon="6.43102">
        <ele>1616.59</ele>
        <time>2020-07-22T07:44:52Z</time>
      </trkpt>
      <trkpt lat="44.87735" lon="6.4313">
        <ele>1613.71</ele>
        <time>2020-07-22T07:45:19Z</time>
      </trkpt>
      <trkpt lat="44.87751" lon="6.43169">
        <ele>1611.79</ele>
        <time>2020-07-22T07:45:43Z</time>
      </trkpt>
      <trkpt lat="44.87767" lon="6.43207">
        <ele>1609.86</ele>
        <time>2020-07-22T07:46:06Z</time>
      </trkpt>
      <trkpt lat="44.87781" lon="6.43244">
        <ele>1609.38</ele>
        <time>2020-07-22T07:46:31Z</time>
      </trkpt>
      <trkpt lat="44.87795" lon="6.43295">
        <ele>1606.02</ele>
        <time>2020-07-22T07:46:57Z</time>
      </trkpt>
      <trkpt lat="44.87804" lon="6.43339">
        <ele>1603.14</ele>
        <time>2020-07-22T07:47:20Z</time>
      </trkpt>
      <trkpt lat="44.87809" lon="6.43371">
        <ele>1599.77</ele>
        <time>2020-07-22T07:47:36Z</time>
      </trkpt>
      <trkpt lat="44.87818" lon="6.43395">
        <ele>1595.93</ele>
        <time>2020-07-22T07:47:52Z</time>
      </trkpt>
      <trkpt lat="44.87821" lon="6.43418">
        <ele>1595.45</ele>
        <time>2020-07-22T07:48:04Z</time>
      </trkpt>
      <trkpt lat="44.87823" lon="6.43446">
        <ele>1593.52</ele>
        <time>2020-07-22T07:48:26Z</time>
      </trkpt>
      <trkpt lat="44.87828" lon="6.43461">
        <ele>1590.16</ele>
        <time>2020-07-22T07:48:48Z</time>
      </trkpt>
      <trkpt lat="44.87829" lon="6.43464">
        <ele>1590.16</ele>
        <time>2020-07-22T07:48:50Z</time>
      </trkpt>
      <trkpt lat="44.87837" lon="6.43483">
        <ele>1589.68</ele>
        <time>2020-07-22T07:49:03Z</time>
      </trkpt>
      <trkpt lat="44.87856" lon="6.4351">
        <ele>1588.72</ele>
        <time>2020-07-22T07:49:27Z</time>
      </trkpt>
      <trkpt lat="44.87866" lon="6.43531">
        <ele>1585.83</ele>
        <time>2020-07-22T07:49:50Z</time>
      </trkpt>
      <trkpt lat="44.87867" lon="6.43548">
        <ele>1582.95</ele>
        <time>2020-07-22T07:50:00Z</time>
      </trkpt>
      <trkpt lat="44.87862" lon="6.43569">
        <ele>1579.58</ele>
        <time>2020-07-22T07:50:13Z</time>
      </trkpt>
      <trkpt lat="44.87876" lon="6.43602">
        <ele>1577.66</ele>
        <time>2020-07-22T07:50:35Z</time>
      </trkpt>
      <trkpt lat="44.8788" lon="6.43622">
        <ele>1576.22</ele>
        <time>2020-07-22T07:50:48Z</time>
      </trkpt>
      <trkpt lat="44.87895" lon="6.43651">
        <ele>1575.74</ele>
        <time>2020-07-22T07:51:05Z</time>
      </trkpt>
      <trkpt lat="44.87911" lon="6.43675">
        <ele>1574.78</ele>
        <time>2020-07-22T07:51:25Z</time>
      </trkpt>
      <trkpt lat="44.87925" lon="6.43713">
        <ele>1572.85</ele>
        <time>2020-07-22T07:51:48Z</time>
      </trkpt>
      <trkpt lat="44.87944" lon="6.43744">
        <ele>1570.45</ele>
        <time>2020-07-22T07:52:12Z</time>
      </trkpt>
      <trkpt lat="44.87963" lon="6.43778">
        <ele>1567.09</ele>
        <time>2020-07-22T07:52:33Z</time>
      </trkpt>
      <trkpt lat="44.87977" lon="6.43791">
        <ele>1566.61</ele>
        <time>2020-07-22T07:52:43Z</time>
      </trkpt>
      <trkpt lat="44.87979" lon="6.43795">
        <ele>1566.61</ele>
        <time>2020-07-22T07:52:45Z</time>
      </trkpt>
      <trkpt lat="44.87995" lon="6.43827">
        <ele>1566.12</ele>
        <time>2020-07-22T07:53:08Z</time>
      </trkpt>
      <trkpt lat="44.88002" lon="6.43833">
        <ele>1566.12</ele>
        <time>2020-07-22T07:53:15Z</time>
      </trkpt>
      <trkpt lat="44.88004" lon="6.43842">
        <ele>1566.12</ele>
        <time>2020-07-22T07:53:21Z</time>
      </trkpt>
      <trkpt lat="44.88018" lon="6.43871">
        <ele>1564.68</ele>
        <time>2020-07-22T07:53:42Z</time>
      </trkpt>
      <trkpt lat="44.88037" lon="6.43898">
        <ele>1563.72</ele>
        <time>2020-07-22T07:54:03Z</time>
      </trkpt>
      <trkpt lat="44.88052" lon="6.43941">
        <ele>1560.84</ele>
        <time>2020-07-22T07:54:27Z</time>
      </trkpt>
      <trkpt lat="44.88053" lon="6.43944">
        <ele>1560.36</ele>
        <time>2020-07-22T07:54:29Z</time>
      </trkpt>
      <trkpt lat="44.88056" lon="6.43949">
        <ele>1559.4</ele>
        <time>2020-07-22T07:54:31Z</time>
      </trkpt>
      <trkpt lat="44.88077" lon="6.43974">
        <ele>1556.51</ele>
        <time>2020-07-22T07:54:49Z</time>
      </trkpt>
      <trkpt lat="44.88097" lon="6.44005">
        <ele>1553.63</ele>
        <time>2020-07-22T07:55:12Z</time>
      </trkpt>
      <trkpt lat="44.88105" lon="6.44021">
        <ele>1553.15</ele>
        <time>2020-07-22T07:55:22Z</time>
      </trkpt>
      <trkpt lat="44.88111" lon="6.44029">
        <ele>1553.15</ele>
        <time>2020-07-22T07:55:30Z</time>
      </trkpt>
      <trkpt lat="44.88127" lon="6.44067">
        <ele>1551.71</ele>
        <time>2020-07-22T07:55:54Z</time>
      </trkpt>
      <trkpt lat="44.88148" lon="6.44099">
        <ele>1550.74</ele>
        <time>2020-07-22T07:56:19Z</time>
      </trkpt>
      <trkpt lat="44.8817" lon="6.44111">
        <ele>1549.78</ele>
        <time>2020-07-22T07:56:42Z</time>
      </trkpt>
      <trkpt lat="44.88198" lon="6.44122">
        <ele>1549.78</ele>
        <time>2020-07-22T07:57:04Z</time>
      </trkpt>
      <trkpt lat="44.88227" lon="6.44143">
        <ele>1548.34</ele>
        <time>2020-07-22T07:57:27Z</time>
      </trkpt>
      <trkpt lat="44.88251" lon="6.44169">
        <ele>1544.98</ele>
        <time>2020-07-22T07:57:45Z</time>
      </trkpt>
      <trkpt lat="44.88273" lon="6.44185">
        <ele>1541.61</ele>
        <time>2020-07-22T07:58:03Z</time>
      </trkpt>
      <trkpt lat="44.88304" lon="6.44207">
        <ele>1538.73</ele>
        <time>2020-07-22T07:58:24Z</time>
      </trkpt>
      <trkpt lat="44.88325" lon="6.44217">
        <ele>1535.36</ele>
        <time>2020-07-22T07:58:42Z</time>
      </trkpt>
      <trkpt lat="44.88333" lon="6.44224">
        <ele>1534.4</ele>
        <time>2020-07-22T07:58:48Z</time>
      </trkpt>
      <trkpt lat="44.88336" lon="6.44227">
        <ele>1532.96</ele>
        <time>2020-07-22T07:58:50Z</time>
      </trkpt>
      <trkpt lat="44.88336" lon="6.44241">
        <ele>1530.56</ele>
        <time>2020-07-22T07:59:10Z</time>
      </trkpt>
      <trkpt lat="44.88342" lon="6.44241">
        <ele>1531.04</ele>
        <time>2020-07-22T07:59:47Z</time>
      </trkpt>
      <trkpt lat="44.8834" lon="6.44239">
        <ele>1531.04</ele>
        <time>2020-07-22T08:00:28Z</time>
      </trkpt>
      <trkpt lat="44.88346" lon="6.44238">
        <ele>1530.56</ele>
        <time>2020-07-22T08:01:02Z</time>
      </trkpt>
      <trkpt lat="44.88343" lon="6.44243">
        <ele>1530.56</ele>
        <time>2020-07-22T08:01:29Z</time>
      </trkpt>
      <trkpt lat="44.88343" lon="6.44235">
        <ele>1530.56</ele>
        <time>2020-07-22T08:01:59Z</time>
      </trkpt>
      <trkpt lat="44.88333" lon="6.44239">
        <ele>1530.56</ele>
        <time>2020-07-22T08:02:26Z</time>
      </trkpt>
      <trkpt lat="44.88349" lon="6.44244">
        <ele>1531.04</ele>
        <time>2020-07-22T08:03:04Z</time>
      </trkpt>
      <trkpt lat="44.88346" lon="6.44246">
        <ele>1531.52</ele>
        <time>2020-07-22T08:03:50Z</time>
      </trkpt>
      <trkpt lat="44.8835" lon="6.44242">
        <ele>1531.52</ele>
        <time>2020-07-22T08:04:25Z</time>
      </trkpt>
      <trkpt lat="44.88341" lon="6.44242">
        <ele>1531.52</ele>
        <time>2020-07-22T08:05:04Z</time>
      </trkpt>
      <trkpt lat="44.88343" lon="6.44234">
        <ele>1532.96</ele>
        <time>2020-07-22T08:05:46Z</time>
      </trkpt>
      <trkpt lat="44.8834" lon="6.44236">
        <ele>1531.52</ele>
        <time>2020-07-22T08:05:53Z</time>
      </trkpt>
      <trkpt lat="44.88352" lon="6.4424">
        <ele>1532.48</ele>
        <time>2020-07-22T08:06:14Z</time>
      </trkpt>
      <trkpt lat="44.88351" lon="6.44239">
        <ele>1532.48</ele>
        <time>2020-07-22T08:06:45Z</time>
      </trkpt>
      <trkpt lat="44.88355" lon="6.44242">
        <ele>1532.48</ele>
        <time>2020-07-22T08:07:19Z</time>
      </trkpt>
      <trkpt lat="44.88334" lon="6.4425">
        <ele>1532.48</ele>
        <time>2020-07-22T08:08:03Z</time>
      </trkpt>
      <trkpt lat="44.88334" lon="6.4425">
        <ele>1532.48</ele>
        <time>2020-07-22T08:08:41Z</time>
      </trkpt>
      <trkpt lat="44.88336" lon="6.44244">
        <ele>1532.96</ele>
        <time>2020-07-22T08:09:10Z</time>
      </trkpt>
      <trkpt lat="44.88333" lon="6.44239">
        <ele>1532.48</ele>
        <time>2020-07-22T08:09:50Z</time>
      </trkpt>
      <trkpt lat="44.88335" lon="6.44241">
        <ele>1532.48</ele>
        <time>2020-07-22T08:10:40Z</time>
      </trkpt>
      <trkpt lat="44.88341" lon="6.44235">
        <ele>1532</ele>
        <time>2020-07-22T08:11:24Z</time>
      </trkpt>
      <trkpt lat="44.88339" lon="6.44238">
        <ele>1531.52</ele>
        <time>2020-07-22T08:12:09Z</time>
      </trkpt>
      <trkpt lat="44.88338" lon="6.4423">
        <ele>1531.52</ele>
        <time>2020-07-22T08:12:52Z</time>
      </trkpt>
      <trkpt lat="44.88339" lon="6.44235">
        <ele>1530.56</ele>
        <time>2020-07-22T08:13:47Z</time>
      </trkpt>
      <trkpt lat="44.88334" lon="6.44237">
        <ele>1530.08</ele>
        <time>2020-07-22T08:14:38Z</time>
      </trkpt>
      <trkpt lat="44.8834" lon="6.44237">
        <ele>1529.11</ele>
        <time>2020-07-22T08:15:28Z</time>
      </trkpt>
      <trkpt lat="44.88345" lon="6.44228">
        <ele>1529.11</ele>
        <time>2020-07-22T08:16:21Z</time>
      </trkpt>
      <trkpt lat="44.88354" lon="6.44216">
        <ele>1528.63</ele>
        <time>2020-07-22T08:17:13Z</time>
      </trkpt>
      <trkpt lat="44.88346" lon="6.44218">
        <ele>1527.67</ele>
        <time>2020-07-22T08:18:09Z</time>
      </trkpt>
      <trkpt lat="44.88347" lon="6.44217">
        <ele>1527.67</ele>
        <time>2020-07-22T08:19:04Z</time>
      </trkpt>
      <trkpt lat="44.88349" lon="6.44221">
        <ele>1527.19</ele>
        <time>2020-07-22T08:20:02Z</time>
      </trkpt>
      <trkpt lat="44.88345" lon="6.44224">
        <ele>1526.71</ele>
        <time>2020-07-22T08:20:55Z</time>
      </trkpt>
      <trkpt lat="44.88348" lon="6.44216">
        <ele>1526.71</ele>
        <time>2020-07-22T08:21:44Z</time>
      </trkpt>
      <trkpt lat="44.88345" lon="6.44223">
        <ele>1526.23</ele>
        <time>2020-07-22T08:22:50Z</time>
      </trkpt>
      <trkpt lat="44.88353" lon="6.44211">
        <ele>1525.75</ele>
        <time>2020-07-22T08:23:55Z</time>
      </trkpt>
      <trkpt lat="44.88348" lon="6.44239">
        <ele>1526.71</ele>
        <time>2020-07-22T08:24:17Z</time>
      </trkpt>
      <trkpt lat="44.88352" lon="6.4427">
        <ele>1523.83</ele>
        <time>2020-07-22T08:24:38Z</time>
      </trkpt>
      <trkpt lat="44.88356" lon="6.443">
        <ele>1520.94</ele>
        <time>2020-07-22T08:24:59Z</time>
      </trkpt>
      <trkpt lat="44.88348" lon="6.44331">
        <ele>1519.02</ele>
        <time>2020-07-22T08:25:24Z</time>
      </trkpt>
      <trkpt lat="44.88365" lon="6.44362">
        <ele>1517.1</ele>
        <time>2020-07-22T08:25:47Z</time>
      </trkpt>
      <trkpt lat="44.88378" lon="6.44376">
        <ele>1516.14</ele>
        <time>2020-07-22T08:26:00Z</time>
      </trkpt>
      <trkpt lat="44.88386" lon="6.44384">
        <ele>1515.18</ele>
        <time>2020-07-22T08:26:07Z</time>
      </trkpt>
      <trkpt lat="44.8839" lon="6.44387">
        <ele>1515.18</ele>
        <time>2020-07-22T08:26:10Z</time>
      </trkpt>
      <trkpt lat="44.88413" lon="6.44414">
        <ele>1512.77</ele>
        <time>2020-07-22T08:26:37Z</time>
      </trkpt>
      <trkpt lat="44.88428" lon="6.44449">
        <ele>1510.85</ele>
        <time>2020-07-22T08:26:59Z</time>
      </trkpt>
      <trkpt lat="44.88437" lon="6.44479">
        <ele>1509.41</ele>
        <time>2020-07-22T08:27:19Z</time>
      </trkpt>
      <trkpt lat="44.88449" lon="6.44519">
        <ele>1507.48</ele>
        <time>2020-07-22T08:27:43Z</time>
      </trkpt>
      <trkpt lat="44.88451" lon="6.44548">
        <ele>1506.52</ele>
        <time>2020-07-22T08:28:03Z</time>
      </trkpt>
      <trkpt lat="44.88439" lon="6.44578">
        <ele>1505.08</ele>
        <time>2020-07-22T08:28:26Z</time>
      </trkpt>
    </trkseg>
  </trk>
</gpx>